<?xml version="1.0" encoding="UTF-8" standalone="no" ?>
<gpx xmlns="http://www.topografix.com/GPX/1/1" xmlns:xsi="http://www.w3.org/2001/XMLSchema-instance" xsi:schemaLocation="http://www.topografix.com/GPX/1/1 http://www.topografix.com/GPX/1/1/gpx.xsd" version="1.1" creator="VisuGPX - https://www.visugpx.com">
  <metadata>
    <name>Langlade</name>
  </metadata>
  <trk>
    <name><![CDATA[Langlade]]></name>
    <trkseg>
      <trkpt lat="43.52427" lon="2.82907">
        <ele>231.19909667969</ele>
        <time>2020-06-06T08:06:40Z</time>
      </trkpt>
      <trkpt lat="43.52424" lon="2.82892">
        <ele>247.31555175781</ele>
        <time>2020-06-06T08:06:43Z</time>
      </trkpt>
      <trkpt lat="43.52427" lon="2.82874">
        <ele>247.20001220703</ele>
        <time>2020-06-06T08:07:18Z</time>
      </trkpt>
      <trkpt lat="43.52433" lon="2.82863">
        <ele>247.20001220703</ele>
        <time>2020-06-06T08:07:26Z</time>
      </trkpt>
      <trkpt lat="43.52442" lon="2.82856">
        <ele>247.20001220703</ele>
        <time>2020-06-06T08:07:36Z</time>
      </trkpt>
      <trkpt lat="43.52447" lon="2.82841">
        <ele>247.20001220703</ele>
        <time>2020-06-06T08:08:04Z</time>
      </trkpt>
      <trkpt lat="43.52448" lon="2.82827">
        <ele>247.20001220703</ele>
        <time>2020-06-06T08:08:12Z</time>
      </trkpt>
      <trkpt lat="43.52446" lon="2.82814">
        <ele>247.20001220703</ele>
        <time>2020-06-06T08:08:22Z</time>
      </trkpt>
      <trkpt lat="43.52444" lon="2.82802">
        <ele>264.62023925781</ele>
        <time>2020-06-06T08:08:29Z</time>
      </trkpt>
      <trkpt lat="43.52442" lon="2.82788">
        <ele>265.79779052734</ele>
        <time>2020-06-06T08:08:39Z</time>
      </trkpt>
      <trkpt lat="43.52438" lon="2.82774">
        <ele>251.10000610352</ele>
        <time>2020-06-06T08:08:50Z</time>
      </trkpt>
      <trkpt lat="43.52435" lon="2.82761">
        <ele>251.10000610352</ele>
        <time>2020-06-06T08:09:00Z</time>
      </trkpt>
      <trkpt lat="43.52429" lon="2.82749">
        <ele>251.10000610352</ele>
        <time>2020-06-06T08:09:07Z</time>
      </trkpt>
      <trkpt lat="43.52428" lon="2.82736">
        <ele>251.10000610352</ele>
        <time>2020-06-06T08:09:19Z</time>
      </trkpt>
      <trkpt lat="43.52424" lon="2.82723">
        <ele>251.10000610352</ele>
        <time>2020-06-06T08:09:30Z</time>
      </trkpt>
      <trkpt lat="43.52419" lon="2.82711">
        <ele>251.10000610352</ele>
        <time>2020-06-06T08:09:37Z</time>
      </trkpt>
      <trkpt lat="43.52413" lon="2.82698">
        <ele>251.10000610352</ele>
        <time>2020-06-06T08:09:43Z</time>
      </trkpt>
      <trkpt lat="43.5241" lon="2.82686">
        <ele>251.10000610352</ele>
        <time>2020-06-06T08:09:53Z</time>
      </trkpt>
      <trkpt lat="43.52406" lon="2.82672">
        <ele>254.09039306641</ele>
        <time>2020-06-06T08:10:02Z</time>
      </trkpt>
      <trkpt lat="43.52402" lon="2.82659">
        <ele>254.19274902344</ele>
        <time>2020-06-06T08:10:15Z</time>
      </trkpt>
      <trkpt lat="43.52396" lon="2.82648">
        <ele>256.33776855469</ele>
        <time>2020-06-06T08:10:21Z</time>
      </trkpt>
      <trkpt lat="43.52388" lon="2.82639">
        <ele>258.60150146484</ele>
        <time>2020-06-06T08:10:30Z</time>
      </trkpt>
      <trkpt lat="43.52386" lon="2.82625">
        <ele>257.7763671875</ele>
        <time>2020-06-06T08:10:40Z</time>
      </trkpt>
      <trkpt lat="43.52382" lon="2.82613">
        <ele>257.76416015625</ele>
        <time>2020-06-06T08:10:51Z</time>
      </trkpt>
      <trkpt lat="43.52377" lon="2.82602">
        <ele>256.45263671875</ele>
        <time>2020-06-06T08:10:59Z</time>
      </trkpt>
      <trkpt lat="43.5237" lon="2.82592">
        <ele>246.39999389648</ele>
        <time>2020-06-06T08:11:07Z</time>
      </trkpt>
      <trkpt lat="43.52364" lon="2.82583">
        <ele>246.39999389648</ele>
        <time>2020-06-06T08:11:20Z</time>
      </trkpt>
      <trkpt lat="43.52357" lon="2.82571">
        <ele>246.39999389648</ele>
        <time>2020-06-06T08:11:31Z</time>
      </trkpt>
      <trkpt lat="43.52351" lon="2.82559">
        <ele>246.39999389648</ele>
        <time>2020-06-06T08:11:38Z</time>
      </trkpt>
      <trkpt lat="43.52346" lon="2.82547">
        <ele>246.39999389648</ele>
        <time>2020-06-06T08:11:47Z</time>
      </trkpt>
      <trkpt lat="43.5234" lon="2.82535">
        <ele>249.80001831055</ele>
        <time>2020-06-06T08:11:56Z</time>
      </trkpt>
      <trkpt lat="43.52335" lon="2.82524">
        <ele>249.80001831055</ele>
        <time>2020-06-06T08:12:04Z</time>
      </trkpt>
      <trkpt lat="43.5233" lon="2.82513">
        <ele>249.80001831055</ele>
        <time>2020-06-06T08:12:10Z</time>
      </trkpt>
      <trkpt lat="43.52324" lon="2.82502">
        <ele>249.80001831055</ele>
        <time>2020-06-06T08:12:18Z</time>
      </trkpt>
      <trkpt lat="43.52318" lon="2.82492">
        <ele>249.80001831055</ele>
        <time>2020-06-06T08:12:27Z</time>
      </trkpt>
      <trkpt lat="43.52313" lon="2.82482">
        <ele>249.80001831055</ele>
        <time>2020-06-06T08:12:38Z</time>
      </trkpt>
      <trkpt lat="43.52306" lon="2.8247">
        <ele>249.80001831055</ele>
        <time>2020-06-06T08:12:48Z</time>
      </trkpt>
      <trkpt lat="43.52302" lon="2.82458">
        <ele>249.80001831055</ele>
        <time>2020-06-06T08:12:57Z</time>
      </trkpt>
      <trkpt lat="43.52297" lon="2.82446">
        <ele>249.80001831055</ele>
        <time>2020-06-06T08:13:06Z</time>
      </trkpt>
      <trkpt lat="43.52292" lon="2.82435">
        <ele>249.80001831055</ele>
        <time>2020-06-06T08:13:14Z</time>
      </trkpt>
      <trkpt lat="43.52285" lon="2.82425">
        <ele>249.80001831055</ele>
        <time>2020-06-06T08:13:25Z</time>
      </trkpt>
      <trkpt lat="43.52279" lon="2.82414">
        <ele>249.80001831055</ele>
        <time>2020-06-06T08:13:36Z</time>
      </trkpt>
      <trkpt lat="43.52273" lon="2.82403">
        <ele>258.62268066406</ele>
        <time>2020-06-06T08:13:43Z</time>
      </trkpt>
      <trkpt lat="43.52265" lon="2.82394">
        <ele>260.0107421875</ele>
        <time>2020-06-06T08:13:50Z</time>
      </trkpt>
      <trkpt lat="43.52261" lon="2.82382">
        <ele>258.58660888672</ele>
        <time>2020-06-06T08:14:00Z</time>
      </trkpt>
      <trkpt lat="43.52257" lon="2.82369">
        <ele>262.16040039062</ele>
        <time>2020-06-06T08:14:09Z</time>
      </trkpt>
      <trkpt lat="43.5225" lon="2.82357">
        <ele>266.83813476562</ele>
        <time>2020-06-06T08:14:17Z</time>
      </trkpt>
      <trkpt lat="43.52245" lon="2.82347">
        <ele>263.69055175781</ele>
        <time>2020-06-06T08:14:26Z</time>
      </trkpt>
      <trkpt lat="43.52242" lon="2.82334">
        <ele>262.615234375</ele>
        <time>2020-06-06T08:14:34Z</time>
      </trkpt>
      <trkpt lat="43.52237" lon="2.82322">
        <ele>265.06634521484</ele>
        <time>2020-06-06T08:14:43Z</time>
      </trkpt>
      <trkpt lat="43.52231" lon="2.8231">
        <ele>264.46429443359</ele>
        <time>2020-06-06T08:14:50Z</time>
      </trkpt>
      <trkpt lat="43.52227" lon="2.82299">
        <ele>267.56530761719</ele>
        <time>2020-06-06T08:15:00Z</time>
      </trkpt>
      <trkpt lat="43.52223" lon="2.82287">
        <ele>266.10443115234</ele>
        <time>2020-06-06T08:15:56Z</time>
      </trkpt>
      <trkpt lat="43.52219" lon="2.82273">
        <ele>274.59899902344</ele>
        <time>2020-06-06T08:16:03Z</time>
      </trkpt>
      <trkpt lat="43.52216" lon="2.82258">
        <ele>275.16259765625</ele>
        <time>2020-06-06T08:16:09Z</time>
      </trkpt>
      <trkpt lat="43.52212" lon="2.82246">
        <ele>275.05462646484</ele>
        <time>2020-06-06T08:16:16Z</time>
      </trkpt>
      <trkpt lat="43.52208" lon="2.82234">
        <ele>274.28875732422</ele>
        <time>2020-06-06T08:16:24Z</time>
      </trkpt>
      <trkpt lat="43.52207" lon="2.82215">
        <ele>276.46765136719</ele>
        <time>2020-06-06T08:16:40Z</time>
      </trkpt>
      <trkpt lat="43.52205" lon="2.82203">
        <ele>276.64013671875</ele>
        <time>2020-06-06T08:16:48Z</time>
      </trkpt>
      <trkpt lat="43.52201" lon="2.82191">
        <ele>274.16137695312</ele>
        <time>2020-06-06T08:16:55Z</time>
      </trkpt>
      <trkpt lat="43.52194" lon="2.82181">
        <ele>268.94696044922</ele>
        <time>2020-06-06T08:17:03Z</time>
      </trkpt>
      <trkpt lat="43.52194" lon="2.82168">
        <ele>272.49426269531</ele>
        <time>2020-06-06T08:17:10Z</time>
      </trkpt>
      <trkpt lat="43.5219" lon="2.82155">
        <ele>262.904296875</ele>
        <time>2020-06-06T08:17:39Z</time>
      </trkpt>
      <trkpt lat="43.52187" lon="2.82141">
        <ele>265.17736816406</ele>
        <time>2020-06-06T08:17:45Z</time>
      </trkpt>
      <trkpt lat="43.52185" lon="2.82128">
        <ele>262.07458496094</ele>
        <time>2020-06-06T08:17:51Z</time>
      </trkpt>
      <trkpt lat="43.52181" lon="2.82115">
        <ele>264.80407714844</ele>
        <time>2020-06-06T08:17:59Z</time>
      </trkpt>
      <trkpt lat="43.52179" lon="2.82101">
        <ele>265.57775878906</ele>
        <time>2020-06-06T08:18:06Z</time>
      </trkpt>
      <trkpt lat="43.52173" lon="2.8209">
        <ele>271.05200195312</ele>
        <time>2020-06-06T08:18:18Z</time>
      </trkpt>
      <trkpt lat="43.52169" lon="2.82078">
        <ele>269.75811767578</ele>
        <time>2020-06-06T08:18:25Z</time>
      </trkpt>
      <trkpt lat="43.52163" lon="2.82067">
        <ele>267.89562988281</ele>
        <time>2020-06-06T08:18:34Z</time>
      </trkpt>
      <trkpt lat="43.52162" lon="2.82053">
        <ele>271.54089355469</ele>
        <time>2020-06-06T08:18:44Z</time>
      </trkpt>
      <trkpt lat="43.52171" lon="2.82048">
        <ele>271.22351074219</ele>
        <time>2020-06-06T08:18:57Z</time>
      </trkpt>
      <trkpt lat="43.5218" lon="2.82057">
        <ele>270.62506103516</ele>
        <time>2020-06-06T08:19:08Z</time>
      </trkpt>
      <trkpt lat="43.52189" lon="2.82063">
        <ele>272.97961425781</ele>
        <time>2020-06-06T08:19:20Z</time>
      </trkpt>
      <trkpt lat="43.52198" lon="2.82065">
        <ele>274.08862304688</ele>
        <time>2020-06-06T08:19:29Z</time>
      </trkpt>
      <trkpt lat="43.52212" lon="2.82067">
        <ele>271.99359130859</ele>
        <time>2020-06-06T08:20:13Z</time>
      </trkpt>
      <trkpt lat="43.52222" lon="2.82071">
        <ele>269.41430664062</ele>
        <time>2020-06-06T08:20:20Z</time>
      </trkpt>
      <trkpt lat="43.52232" lon="2.82071">
        <ele>274.58947753906</ele>
        <time>2020-06-06T08:20:25Z</time>
      </trkpt>
      <trkpt lat="43.52241" lon="2.82066">
        <ele>278.22674560547</ele>
        <time>2020-06-06T08:20:31Z</time>
      </trkpt>
      <trkpt lat="43.52251" lon="2.82065">
        <ele>276.72564697266</ele>
        <time>2020-06-06T08:20:40Z</time>
      </trkpt>
      <trkpt lat="43.52261" lon="2.82065">
        <ele>278.46643066406</ele>
        <time>2020-06-06T08:20:50Z</time>
      </trkpt>
      <trkpt lat="43.5227" lon="2.82068">
        <ele>281.41278076172</ele>
        <time>2020-06-06T08:20:59Z</time>
      </trkpt>
      <trkpt lat="43.52279" lon="2.82081">
        <ele>285.20581054688</ele>
        <time>2020-06-06T08:21:19Z</time>
      </trkpt>
      <trkpt lat="43.52283" lon="2.82092">
        <ele>287.32135009766</ele>
        <time>2020-06-06T08:21:40Z</time>
      </trkpt>
      <trkpt lat="43.52287" lon="2.82105">
        <ele>285.47467041016</ele>
        <time>2020-06-06T08:22:02Z</time>
      </trkpt>
      <trkpt lat="43.52293" lon="2.82116">
        <ele>292.84088134766</ele>
        <time>2020-06-06T08:22:14Z</time>
      </trkpt>
      <trkpt lat="43.52301" lon="2.82126">
        <ele>290.67211914062</ele>
        <time>2020-06-06T08:22:21Z</time>
      </trkpt>
      <trkpt lat="43.52307" lon="2.82138">
        <ele>292.93383789062</ele>
        <time>2020-06-06T08:22:33Z</time>
      </trkpt>
      <trkpt lat="43.52315" lon="2.82147">
        <ele>295.67614746094</ele>
        <time>2020-06-06T08:22:41Z</time>
      </trkpt>
      <trkpt lat="43.52322" lon="2.82156">
        <ele>292.06018066406</ele>
        <time>2020-06-06T08:22:53Z</time>
      </trkpt>
      <trkpt lat="43.52333" lon="2.82157">
        <ele>297.38513183594</ele>
        <time>2020-06-06T08:23:03Z</time>
      </trkpt>
      <trkpt lat="43.52343" lon="2.82159">
        <ele>295.53051757812</ele>
        <time>2020-06-06T08:23:11Z</time>
      </trkpt>
      <trkpt lat="43.52351" lon="2.82165">
        <ele>294.28112792969</ele>
        <time>2020-06-06T08:23:26Z</time>
      </trkpt>
      <trkpt lat="43.52359" lon="2.82172">
        <ele>297.35864257812</ele>
        <time>2020-06-06T08:23:38Z</time>
      </trkpt>
      <trkpt lat="43.52368" lon="2.82181">
        <ele>294.78515625</ele>
        <time>2020-06-06T08:23:46Z</time>
      </trkpt>
      <trkpt lat="43.52377" lon="2.82189">
        <ele>293.80700683594</ele>
        <time>2020-06-06T08:23:53Z</time>
      </trkpt>
      <trkpt lat="43.52379" lon="2.82203">
        <ele>296.62194824219</ele>
        <time>2020-06-06T08:24:04Z</time>
      </trkpt>
      <trkpt lat="43.52388" lon="2.82213">
        <ele>297.81402587891</ele>
        <time>2020-06-06T08:24:13Z</time>
      </trkpt>
      <trkpt lat="43.52399" lon="2.82213">
        <ele>301.38397216797</ele>
        <time>2020-06-06T08:24:23Z</time>
      </trkpt>
      <trkpt lat="43.52405" lon="2.82203">
        <ele>301.72308349609</ele>
        <time>2020-06-06T08:24:36Z</time>
      </trkpt>
      <trkpt lat="43.52408" lon="2.82191">
        <ele>302.50872802734</ele>
        <time>2020-06-06T08:24:46Z</time>
      </trkpt>
      <trkpt lat="43.52415" lon="2.8218">
        <ele>305.99194335938</ele>
        <time>2020-06-06T08:24:59Z</time>
      </trkpt>
      <trkpt lat="43.52424" lon="2.82173">
        <ele>304.48773193359</ele>
        <time>2020-06-06T08:25:19Z</time>
      </trkpt>
      <trkpt lat="43.52433" lon="2.82167">
        <ele>302.21588134766</ele>
        <time>2020-06-06T08:25:30Z</time>
      </trkpt>
      <trkpt lat="43.52442" lon="2.8216">
        <ele>302.12432861328</ele>
        <time>2020-06-06T08:25:41Z</time>
      </trkpt>
      <trkpt lat="43.5245" lon="2.82154">
        <ele>303.22918701172</ele>
        <time>2020-06-06T08:25:53Z</time>
      </trkpt>
      <trkpt lat="43.5246" lon="2.82152">
        <ele>306.4970703125</ele>
        <time>2020-06-06T08:26:06Z</time>
      </trkpt>
      <trkpt lat="43.52468" lon="2.82147">
        <ele>308.16046142578</ele>
        <time>2020-06-06T08:26:16Z</time>
      </trkpt>
      <trkpt lat="43.52477" lon="2.82155">
        <ele>312.6171875</ele>
        <time>2020-06-06T08:26:32Z</time>
      </trkpt>
      <trkpt lat="43.52487" lon="2.82155">
        <ele>317.04974365234</ele>
        <time>2020-06-06T08:26:43Z</time>
      </trkpt>
      <trkpt lat="43.52498" lon="2.82153">
        <ele>321.64245605469</ele>
        <time>2020-06-06T08:26:58Z</time>
      </trkpt>
      <trkpt lat="43.52509" lon="2.82153">
        <ele>319.61804199219</ele>
        <time>2020-06-06T08:27:06Z</time>
      </trkpt>
      <trkpt lat="43.52518" lon="2.82151">
        <ele>319.33001708984</ele>
        <time>2020-06-06T08:27:15Z</time>
      </trkpt>
      <trkpt lat="43.52529" lon="2.82148">
        <ele>320.8076171875</ele>
        <time>2020-06-06T08:27:23Z</time>
      </trkpt>
      <trkpt lat="43.52538" lon="2.82148">
        <ele>313.96813964844</ele>
        <time>2020-06-06T08:27:36Z</time>
      </trkpt>
      <trkpt lat="43.52548" lon="2.82147">
        <ele>317.38836669922</ele>
        <time>2020-06-06T08:27:45Z</time>
      </trkpt>
      <trkpt lat="43.52558" lon="2.82146">
        <ele>317.04040527344</ele>
        <time>2020-06-06T08:27:54Z</time>
      </trkpt>
      <trkpt lat="43.52568" lon="2.82147">
        <ele>313.74908447266</ele>
        <time>2020-06-06T08:28:04Z</time>
      </trkpt>
      <trkpt lat="43.52574" lon="2.82158">
        <ele>315.28942871094</ele>
        <time>2020-06-06T08:28:14Z</time>
      </trkpt>
      <trkpt lat="43.5258" lon="2.82169">
        <ele>318.65844726562</ele>
        <time>2020-06-06T08:28:23Z</time>
      </trkpt>
      <trkpt lat="43.52585" lon="2.82181">
        <ele>318.54638671875</ele>
        <time>2020-06-06T08:28:31Z</time>
      </trkpt>
      <trkpt lat="43.52592" lon="2.82191">
        <ele>320.25494384766</ele>
        <time>2020-06-06T08:28:39Z</time>
      </trkpt>
      <trkpt lat="43.52592" lon="2.8221">
        <ele>317.05688476562</ele>
        <time>2020-06-06T08:28:57Z</time>
      </trkpt>
      <trkpt lat="43.52601" lon="2.82215">
        <ele>321.83111572266</ele>
        <time>2020-06-06T08:29:23Z</time>
      </trkpt>
      <trkpt lat="43.5261" lon="2.82211">
        <ele>323.75305175781</ele>
        <time>2020-06-06T08:29:36Z</time>
      </trkpt>
      <trkpt lat="43.52616" lon="2.822">
        <ele>325.095703125</ele>
        <time>2020-06-06T08:29:45Z</time>
      </trkpt>
      <trkpt lat="43.52622" lon="2.8219">
        <ele>322.72393798828</ele>
        <time>2020-06-06T08:30:00Z</time>
      </trkpt>
      <trkpt lat="43.52626" lon="2.82178">
        <ele>318.97052001953</ele>
        <time>2020-06-06T08:30:12Z</time>
      </trkpt>
      <trkpt lat="43.52629" lon="2.82164">
        <ele>324.6630859375</ele>
        <time>2020-06-06T08:30:22Z</time>
      </trkpt>
      <trkpt lat="43.52631" lon="2.82152">
        <ele>322.66937255859</ele>
        <time>2020-06-06T08:30:31Z</time>
      </trkpt>
      <trkpt lat="43.52633" lon="2.82138">
        <ele>314.00866699219</ele>
        <time>2020-06-06T08:30:50Z</time>
      </trkpt>
      <trkpt lat="43.52637" lon="2.82126">
        <ele>307.87628173828</ele>
        <time>2020-06-06T08:31:00Z</time>
      </trkpt>
      <trkpt lat="43.52643" lon="2.82113">
        <ele>312.00579833984</ele>
        <time>2020-06-06T08:31:09Z</time>
      </trkpt>
      <trkpt lat="43.52645" lon="2.82099">
        <ele>309.14202880859</ele>
        <time>2020-06-06T08:31:16Z</time>
      </trkpt>
      <trkpt lat="43.52649" lon="2.82088">
        <ele>308.64440917969</ele>
        <time>2020-06-06T08:31:25Z</time>
      </trkpt>
      <trkpt lat="43.52654" lon="2.82076">
        <ele>312.66705322266</ele>
        <time>2020-06-06T08:31:34Z</time>
      </trkpt>
      <trkpt lat="43.5266" lon="2.82067">
        <ele>314.44152832031</ele>
        <time>2020-06-06T08:31:45Z</time>
      </trkpt>
      <trkpt lat="43.52669" lon="2.82061">
        <ele>318.66857910156</ele>
        <time>2020-06-06T08:31:57Z</time>
      </trkpt>
      <trkpt lat="43.52675" lon="2.82051">
        <ele>324.33715820312</ele>
        <time>2020-06-06T08:32:15Z</time>
      </trkpt>
      <trkpt lat="43.52685" lon="2.82044">
        <ele>323.74438476562</ele>
        <time>2020-06-06T08:32:24Z</time>
      </trkpt>
      <trkpt lat="43.52693" lon="2.82051">
        <ele>334.92895507812</ele>
        <time>2020-06-06T08:32:50Z</time>
      </trkpt>
      <trkpt lat="43.52697" lon="2.82064">
        <ele>334.20623779297</ele>
        <time>2020-06-06T08:33:09Z</time>
      </trkpt>
      <trkpt lat="43.52707" lon="2.82066">
        <ele>335.26977539062</ele>
        <time>2020-06-06T08:33:27Z</time>
      </trkpt>
      <trkpt lat="43.52718" lon="2.82069">
        <ele>335.98626708984</ele>
        <time>2020-06-06T08:33:33Z</time>
      </trkpt>
      <trkpt lat="43.52726" lon="2.82077">
        <ele>332.22253417969</ele>
        <time>2020-06-06T08:34:02Z</time>
      </trkpt>
      <trkpt lat="43.52734" lon="2.82084">
        <ele>333.28741455078</ele>
        <time>2020-06-06T08:34:15Z</time>
      </trkpt>
      <trkpt lat="43.52743" lon="2.82087">
        <ele>342.84057617188</ele>
        <time>2020-06-06T08:34:45Z</time>
      </trkpt>
      <trkpt lat="43.52749" lon="2.82098">
        <ele>347.17449951172</ele>
        <time>2020-06-06T08:36:24Z</time>
      </trkpt>
      <trkpt lat="43.52753" lon="2.82109">
        <ele>347.9267578125</ele>
        <time>2020-06-06T08:36:36Z</time>
      </trkpt>
      <trkpt lat="43.52761" lon="2.82117">
        <ele>348.55499267578</ele>
        <time>2020-06-06T08:36:50Z</time>
      </trkpt>
      <trkpt lat="43.52771" lon="2.8212">
        <ele>348.66552734375</ele>
        <time>2020-06-06T08:37:06Z</time>
      </trkpt>
      <trkpt lat="43.52781" lon="2.82123">
        <ele>352.38049316406</ele>
        <time>2020-06-06T08:37:17Z</time>
      </trkpt>
      <trkpt lat="43.5279" lon="2.82118">
        <ele>355.59826660156</ele>
        <time>2020-06-06T08:37:27Z</time>
      </trkpt>
      <trkpt lat="43.52797" lon="2.82108">
        <ele>354.37536621094</ele>
        <time>2020-06-06T08:37:45Z</time>
      </trkpt>
      <trkpt lat="43.52805" lon="2.82099">
        <ele>355.42053222656</ele>
        <time>2020-06-06T08:37:58Z</time>
      </trkpt>
      <trkpt lat="43.52806" lon="2.82086">
        <ele>358.40203857422</ele>
        <time>2020-06-06T08:38:11Z</time>
      </trkpt>
      <trkpt lat="43.52808" lon="2.82072">
        <ele>358.18334960938</ele>
        <time>2020-06-06T08:38:22Z</time>
      </trkpt>
      <trkpt lat="43.52815" lon="2.82063">
        <ele>363.71655273438</ele>
        <time>2020-06-06T08:38:35Z</time>
      </trkpt>
      <trkpt lat="43.5282" lon="2.82052">
        <ele>363.22045898438</ele>
        <time>2020-06-06T08:39:05Z</time>
      </trkpt>
      <trkpt lat="43.52825" lon="2.82039">
        <ele>370.83251953125</ele>
        <time>2020-06-06T08:39:17Z</time>
      </trkpt>
      <trkpt lat="43.52833" lon="2.82032">
        <ele>371.41467285156</ele>
        <time>2020-06-06T08:39:24Z</time>
      </trkpt>
      <trkpt lat="43.52839" lon="2.8202">
        <ele>370.02288818359</ele>
        <time>2020-06-06T08:39:37Z</time>
      </trkpt>
      <trkpt lat="43.52837" lon="2.82007">
        <ele>368.25073242188</ele>
        <time>2020-06-06T08:39:49Z</time>
      </trkpt>
      <trkpt lat="43.52837" lon="2.81994">
        <ele>369.11071777344</ele>
        <time>2020-06-06T08:40:16Z</time>
      </trkpt>
      <trkpt lat="43.52841" lon="2.81982">
        <ele>365.10369873047</ele>
        <time>2020-06-06T08:40:29Z</time>
      </trkpt>
      <trkpt lat="43.52846" lon="2.8197">
        <ele>360.41955566406</ele>
        <time>2020-06-06T08:40:44Z</time>
      </trkpt>
      <trkpt lat="43.52854" lon="2.81961">
        <ele>361.51770019531</ele>
        <time>2020-06-06T08:40:53Z</time>
      </trkpt>
      <trkpt lat="43.52863" lon="2.81946">
        <ele>369.46112060547</ele>
        <time>2020-06-06T08:41:09Z</time>
      </trkpt>
      <trkpt lat="43.52863" lon="2.81933">
        <ele>368.62481689453</ele>
        <time>2020-06-06T08:41:23Z</time>
      </trkpt>
      <trkpt lat="43.52868" lon="2.81946">
        <ele>374.87841796875</ele>
        <time>2020-06-06T08:42:08Z</time>
      </trkpt>
      <trkpt lat="43.52872" lon="2.81957">
        <ele>378.53234863281</ele>
        <time>2020-06-06T08:42:17Z</time>
      </trkpt>
      <trkpt lat="43.52875" lon="2.81969">
        <ele>385.34362792969</ele>
        <time>2020-06-06T08:42:32Z</time>
      </trkpt>
      <trkpt lat="43.52886" lon="2.81976">
        <ele>384.068359375</ele>
        <time>2020-06-06T08:44:57Z</time>
      </trkpt>
      <trkpt lat="43.52888" lon="2.81964">
        <ele>387.05749511719</ele>
        <time>2020-06-06T08:45:20Z</time>
      </trkpt>
      <trkpt lat="43.52893" lon="2.81947">
        <ele>389.69982910156</ele>
        <time>2020-06-06T08:45:41Z</time>
      </trkpt>
      <trkpt lat="43.52903" lon="2.81947">
        <ele>399.45495605469</ele>
        <time>2020-06-06T08:46:00Z</time>
      </trkpt>
      <trkpt lat="43.5291" lon="2.81933">
        <ele>400.08532714844</ele>
        <time>2020-06-06T08:46:44Z</time>
      </trkpt>
      <trkpt lat="43.52917" lon="2.81923">
        <ele>402.47271728516</ele>
        <time>2020-06-06T08:46:51Z</time>
      </trkpt>
      <trkpt lat="43.52924" lon="2.81932">
        <ele>404.97601318359</ele>
        <time>2020-06-06T08:47:24Z</time>
      </trkpt>
      <trkpt lat="43.52934" lon="2.81934">
        <ele>404.82250976562</ele>
        <time>2020-06-06T08:47:40Z</time>
      </trkpt>
      <trkpt lat="43.52941" lon="2.81925">
        <ele>404.95104980469</ele>
        <time>2020-06-06T08:47:52Z</time>
      </trkpt>
      <trkpt lat="43.52951" lon="2.81929">
        <ele>407.87841796875</ele>
        <time>2020-06-06T08:48:08Z</time>
      </trkpt>
      <trkpt lat="43.5296" lon="2.81935">
        <ele>408.22473144531</ele>
        <time>2020-06-06T08:48:24Z</time>
      </trkpt>
      <trkpt lat="43.52969" lon="2.81938">
        <ele>408.88134765625</ele>
        <time>2020-06-06T08:48:37Z</time>
      </trkpt>
      <trkpt lat="43.52979" lon="2.81943">
        <ele>410.35607910156</ele>
        <time>2020-06-06T08:48:47Z</time>
      </trkpt>
      <trkpt lat="43.52988" lon="2.81947">
        <ele>412.65570068359</ele>
        <time>2020-06-06T08:49:14Z</time>
      </trkpt>
      <trkpt lat="43.52998" lon="2.81951">
        <ele>412.57916259766</ele>
        <time>2020-06-06T08:49:22Z</time>
      </trkpt>
      <trkpt lat="43.53006" lon="2.81958">
        <ele>413.29663085938</ele>
        <time>2020-06-06T08:49:32Z</time>
      </trkpt>
      <trkpt lat="43.53014" lon="2.81974">
        <ele>421.20361328125</ele>
        <time>2020-06-06T08:50:00Z</time>
      </trkpt>
      <trkpt lat="43.53022" lon="2.81984">
        <ele>416.85461425781</ele>
        <time>2020-06-06T08:50:10Z</time>
      </trkpt>
      <trkpt lat="43.5303" lon="2.81993">
        <ele>421.34783935547</ele>
        <time>2020-06-06T08:50:40Z</time>
      </trkpt>
      <trkpt lat="43.53034" lon="2.82005">
        <ele>424.07598876953</ele>
        <time>2020-06-06T08:50:47Z</time>
      </trkpt>
      <trkpt lat="43.5304" lon="2.82016">
        <ele>426.77514648438</ele>
        <time>2020-06-06T08:50:54Z</time>
      </trkpt>
      <trkpt lat="43.5305" lon="2.82022">
        <ele>429.0556640625</ele>
        <time>2020-06-06T08:51:00Z</time>
      </trkpt>
      <trkpt lat="43.53059" lon="2.82018">
        <ele>427.50415039062</ele>
        <time>2020-06-06T08:51:26Z</time>
      </trkpt>
      <trkpt lat="43.5306" lon="2.82005">
        <ele>425.32849121094</ele>
        <time>2020-06-06T08:51:37Z</time>
      </trkpt>
      <trkpt lat="43.53064" lon="2.81992">
        <ele>426.40368652344</ele>
        <time>2020-06-06T08:51:49Z</time>
      </trkpt>
      <trkpt lat="43.53065" lon="2.81979">
        <ele>425.39880371094</ele>
        <time>2020-06-06T08:51:57Z</time>
      </trkpt>
      <trkpt lat="43.53059" lon="2.81968">
        <ele>430.21447753906</ele>
        <time>2020-06-06T08:52:13Z</time>
      </trkpt>
      <trkpt lat="43.53052" lon="2.81958">
        <ele>432.16076660156</ele>
        <time>2020-06-06T08:52:21Z</time>
      </trkpt>
      <trkpt lat="43.53048" lon="2.81946">
        <ele>436.41162109375</ele>
        <time>2020-06-06T08:52:31Z</time>
      </trkpt>
      <trkpt lat="43.53043" lon="2.81935">
        <ele>437.94946289062</ele>
        <time>2020-06-06T08:52:40Z</time>
      </trkpt>
      <trkpt lat="43.53043" lon="2.81922">
        <ele>434.16259765625</ele>
        <time>2020-06-06T08:52:54Z</time>
      </trkpt>
      <trkpt lat="43.53043" lon="2.81909">
        <ele>431.88537597656</ele>
        <time>2020-06-06T08:53:07Z</time>
      </trkpt>
      <trkpt lat="43.53041" lon="2.81895">
        <ele>436.01391601562</ele>
        <time>2020-06-06T08:53:32Z</time>
      </trkpt>
      <trkpt lat="43.53041" lon="2.81881">
        <ele>437.36181640625</ele>
        <time>2020-06-06T08:53:41Z</time>
      </trkpt>
      <trkpt lat="43.53042" lon="2.81868">
        <ele>435.09899902344</ele>
        <time>2020-06-06T08:53:49Z</time>
      </trkpt>
      <trkpt lat="43.53044" lon="2.81855">
        <ele>433.64172363281</ele>
        <time>2020-06-06T08:54:01Z</time>
      </trkpt>
      <trkpt lat="43.53044" lon="2.8184">
        <ele>435.70135498047</ele>
        <time>2020-06-06T08:54:12Z</time>
      </trkpt>
      <trkpt lat="43.53048" lon="2.81827">
        <ele>438.1376953125</ele>
        <time>2020-06-06T08:54:23Z</time>
      </trkpt>
      <trkpt lat="43.53049" lon="2.81813">
        <ele>437.42504882812</ele>
        <time>2020-06-06T08:54:35Z</time>
      </trkpt>
      <trkpt lat="43.53053" lon="2.81802">
        <ele>444.49383544922</ele>
        <time>2020-06-06T08:55:28Z</time>
      </trkpt>
      <trkpt lat="43.53054" lon="2.81789">
        <ele>446.64880371094</ele>
        <time>2020-06-06T08:57:39Z</time>
      </trkpt>
      <trkpt lat="43.53061" lon="2.81797">
        <ele>451.82531738281</ele>
        <time>2020-06-06T08:58:00Z</time>
      </trkpt>
      <trkpt lat="43.53062" lon="2.8181">
        <ele>451.23779296875</ele>
        <time>2020-06-06T08:58:12Z</time>
      </trkpt>
      <trkpt lat="43.53068" lon="2.81821">
        <ele>450.47601318359</ele>
        <time>2020-06-06T08:58:24Z</time>
      </trkpt>
      <trkpt lat="43.53073" lon="2.81832">
        <ele>451.26495361328</ele>
        <time>2020-06-06T08:58:35Z</time>
      </trkpt>
      <trkpt lat="43.53077" lon="2.81844">
        <ele>449.6513671875</ele>
        <time>2020-06-06T08:58:58Z</time>
      </trkpt>
      <trkpt lat="43.53083" lon="2.81856">
        <ele>450.6494140625</ele>
        <time>2020-06-06T08:59:08Z</time>
      </trkpt>
      <trkpt lat="43.53091" lon="2.81862">
        <ele>453.71307373047</ele>
        <time>2020-06-06T08:59:27Z</time>
      </trkpt>
      <trkpt lat="43.531" lon="2.81858">
        <ele>454.73748779297</ele>
        <time>2020-06-06T08:59:40Z</time>
      </trkpt>
      <trkpt lat="43.53109" lon="2.81855">
        <ele>451.60791015625</ele>
        <time>2020-06-06T09:00:04Z</time>
      </trkpt>
      <trkpt lat="43.53117" lon="2.8185">
        <ele>458.18988037109</ele>
        <time>2020-06-06T09:00:16Z</time>
      </trkpt>
      <trkpt lat="43.53126" lon="2.81845">
        <ele>458.6103515625</ele>
        <time>2020-06-06T09:00:24Z</time>
      </trkpt>
      <trkpt lat="43.53136" lon="2.81835">
        <ele>461.24182128906</ele>
        <time>2020-06-06T09:01:05Z</time>
      </trkpt>
      <trkpt lat="43.53145" lon="2.81828">
        <ele>468.99072265625</ele>
        <time>2020-06-06T09:01:17Z</time>
      </trkpt>
      <trkpt lat="43.53152" lon="2.81819">
        <ele>468.82250976562</ele>
        <time>2020-06-06T09:01:33Z</time>
      </trkpt>
      <trkpt lat="43.53159" lon="2.81811">
        <ele>467.84881591797</ele>
        <time>2020-06-06T09:01:49Z</time>
      </trkpt>
      <trkpt lat="43.53168" lon="2.81806">
        <ele>477.66088867188</ele>
        <time>2020-06-06T09:03:42Z</time>
      </trkpt>
      <trkpt lat="43.53176" lon="2.81798">
        <ele>477.0341796875</ele>
        <time>2020-06-06T09:03:55Z</time>
      </trkpt>
      <trkpt lat="43.53187" lon="2.81805">
        <ele>481.74853515625</ele>
        <time>2020-06-06T09:06:09Z</time>
      </trkpt>
      <trkpt lat="43.53196" lon="2.81809">
        <ele>485.74462890625</ele>
        <time>2020-06-06T09:06:24Z</time>
      </trkpt>
      <trkpt lat="43.53205" lon="2.81814">
        <ele>482.35620117188</ele>
        <time>2020-06-06T09:06:34Z</time>
      </trkpt>
      <trkpt lat="43.53211" lon="2.81826">
        <ele>479.77233886719</ele>
        <time>2020-06-06T09:06:43Z</time>
      </trkpt>
      <trkpt lat="43.53221" lon="2.81826">
        <ele>480.86804199219</ele>
        <time>2020-06-06T09:06:54Z</time>
      </trkpt>
      <trkpt lat="43.53229" lon="2.81832">
        <ele>479.94323730469</ele>
        <time>2020-06-06T09:07:05Z</time>
      </trkpt>
      <trkpt lat="43.53238" lon="2.81837">
        <ele>483.46374511719</ele>
        <time>2020-06-06T09:07:14Z</time>
      </trkpt>
      <trkpt lat="43.53245" lon="2.81844">
        <ele>491.23083496094</ele>
        <time>2020-06-06T09:07:28Z</time>
      </trkpt>
      <trkpt lat="43.53255" lon="2.81848">
        <ele>491.81616210938</ele>
        <time>2020-06-06T09:07:42Z</time>
      </trkpt>
      <trkpt lat="43.53265" lon="2.81848">
        <ele>494.53527832031</ele>
        <time>2020-06-06T09:07:50Z</time>
      </trkpt>
      <trkpt lat="43.53275" lon="2.8185">
        <ele>495.14038085938</ele>
        <time>2020-06-06T09:07:58Z</time>
      </trkpt>
      <trkpt lat="43.53285" lon="2.8185">
        <ele>494.59631347656</ele>
        <time>2020-06-06T09:08:05Z</time>
      </trkpt>
      <trkpt lat="43.53295" lon="2.81853">
        <ele>492.00695800781</ele>
        <time>2020-06-06T09:08:30Z</time>
      </trkpt>
      <trkpt lat="43.53305" lon="2.81856">
        <ele>494.71520996094</ele>
        <time>2020-06-06T09:08:38Z</time>
      </trkpt>
      <trkpt lat="43.53315" lon="2.81856">
        <ele>497.53454589844</ele>
        <time>2020-06-06T09:08:46Z</time>
      </trkpt>
      <trkpt lat="43.53323" lon="2.81851">
        <ele>496.75891113281</ele>
        <time>2020-06-06T09:09:04Z</time>
      </trkpt>
      <trkpt lat="43.53315" lon="2.81842">
        <ele>494.22607421875</ele>
        <time>2020-06-06T09:09:27Z</time>
      </trkpt>
      <trkpt lat="43.53308" lon="2.81829">
        <ele>495.03149414062</ele>
        <time>2020-06-06T09:09:33Z</time>
      </trkpt>
      <trkpt lat="43.5332" lon="2.81833">
        <ele>501.90100097656</ele>
        <time>2020-06-06T09:10:00Z</time>
      </trkpt>
      <trkpt lat="43.53329" lon="2.81835">
        <ele>502.11340332031</ele>
        <time>2020-06-06T09:10:08Z</time>
      </trkpt>
      <trkpt lat="43.53339" lon="2.81834">
        <ele>504.74780273438</ele>
        <time>2020-06-06T09:11:04Z</time>
      </trkpt>
      <trkpt lat="43.53352" lon="2.81833">
        <ele>512.40869140625</ele>
        <time>2020-06-06T09:11:37Z</time>
      </trkpt>
      <trkpt lat="43.53362" lon="2.81835">
        <ele>508.05261230469</ele>
        <time>2020-06-06T09:11:57Z</time>
      </trkpt>
      <trkpt lat="43.53372" lon="2.81836">
        <ele>505.78942871094</ele>
        <time>2020-06-06T09:12:04Z</time>
      </trkpt>
      <trkpt lat="43.53381" lon="2.81837">
        <ele>505.65930175781</ele>
        <time>2020-06-06T09:12:11Z</time>
      </trkpt>
      <trkpt lat="43.53391" lon="2.81839">
        <ele>511.83740234375</ele>
        <time>2020-06-06T09:12:20Z</time>
      </trkpt>
      <trkpt lat="43.53401" lon="2.81837">
        <ele>512.98718261719</ele>
        <time>2020-06-06T09:12:28Z</time>
      </trkpt>
      <trkpt lat="43.5341" lon="2.81836">
        <ele>515.23669433594</ele>
        <time>2020-06-06T09:12:38Z</time>
      </trkpt>
      <trkpt lat="43.5342" lon="2.81835">
        <ele>515.91430664062</ele>
        <time>2020-06-06T09:12:48Z</time>
      </trkpt>
      <trkpt lat="43.5343" lon="2.81832">
        <ele>514.91723632812</ele>
        <time>2020-06-06T09:12:57Z</time>
      </trkpt>
      <trkpt lat="43.53441" lon="2.81832">
        <ele>515.85534667969</ele>
        <time>2020-06-06T09:13:09Z</time>
      </trkpt>
      <trkpt lat="43.5345" lon="2.81827">
        <ele>512.50268554688</ele>
        <time>2020-06-06T09:13:29Z</time>
      </trkpt>
      <trkpt lat="43.5346" lon="2.81821">
        <ele>515.349609375</ele>
        <time>2020-06-06T09:13:35Z</time>
      </trkpt>
      <trkpt lat="43.53469" lon="2.81814">
        <ele>517.24975585938</ele>
        <time>2020-06-06T09:13:42Z</time>
      </trkpt>
      <trkpt lat="43.53478" lon="2.81812">
        <ele>515.82153320312</ele>
        <time>2020-06-06T09:13:51Z</time>
      </trkpt>
      <trkpt lat="43.53488" lon="2.81807">
        <ele>512.39416503906</ele>
        <time>2020-06-06T09:14:00Z</time>
      </trkpt>
      <trkpt lat="43.53497" lon="2.81803">
        <ele>510.82446289062</ele>
        <time>2020-06-06T09:14:09Z</time>
      </trkpt>
      <trkpt lat="43.53507" lon="2.81796">
        <ele>514.78515625</ele>
        <time>2020-06-06T09:14:21Z</time>
      </trkpt>
      <trkpt lat="43.53516" lon="2.8179">
        <ele>508.82409667969</ele>
        <time>2020-06-06T09:14:35Z</time>
      </trkpt>
      <trkpt lat="43.53524" lon="2.81783">
        <ele>506.17724609375</ele>
        <time>2020-06-06T09:14:47Z</time>
      </trkpt>
      <trkpt lat="43.53532" lon="2.81774">
        <ele>503.50952148438</ele>
        <time>2020-06-06T09:14:55Z</time>
      </trkpt>
      <trkpt lat="43.53536" lon="2.81761">
        <ele>506.74108886719</ele>
        <time>2020-06-06T09:15:02Z</time>
      </trkpt>
      <trkpt lat="43.53538" lon="2.81747">
        <ele>516.95581054688</ele>
        <time>2020-06-06T09:15:15Z</time>
      </trkpt>
      <trkpt lat="43.53542" lon="2.81733">
        <ele>517.21923828125</ele>
        <time>2020-06-06T09:15:24Z</time>
      </trkpt>
      <trkpt lat="43.53548" lon="2.81722">
        <ele>519.55419921875</ele>
        <time>2020-06-06T09:15:34Z</time>
      </trkpt>
      <trkpt lat="43.53553" lon="2.81709">
        <ele>518.43701171875</ele>
        <time>2020-06-06T09:15:41Z</time>
      </trkpt>
      <trkpt lat="43.53559" lon="2.81698">
        <ele>522.07080078125</ele>
        <time>2020-06-06T09:15:49Z</time>
      </trkpt>
      <trkpt lat="43.53562" lon="2.81686">
        <ele>524.20837402344</ele>
        <time>2020-06-06T09:15:57Z</time>
      </trkpt>
      <trkpt lat="43.53563" lon="2.81673">
        <ele>521.6630859375</ele>
        <time>2020-06-06T09:16:09Z</time>
      </trkpt>
      <trkpt lat="43.53566" lon="2.81661">
        <ele>521.62487792969</ele>
        <time>2020-06-06T09:16:39Z</time>
      </trkpt>
      <trkpt lat="43.53569" lon="2.81647">
        <ele>514.31396484375</ele>
        <time>2020-06-06T09:16:45Z</time>
      </trkpt>
      <trkpt lat="43.5357" lon="2.81633">
        <ele>521.677734375</ele>
        <time>2020-06-06T09:16:51Z</time>
      </trkpt>
      <trkpt lat="43.53573" lon="2.8162">
        <ele>524.77880859375</ele>
        <time>2020-06-06T09:16:58Z</time>
      </trkpt>
      <trkpt lat="43.53575" lon="2.81607">
        <ele>525.9169921875</ele>
        <time>2020-06-06T09:17:04Z</time>
      </trkpt>
      <trkpt lat="43.53579" lon="2.81594">
        <ele>524.35107421875</ele>
        <time>2020-06-06T09:17:12Z</time>
      </trkpt>
      <trkpt lat="43.53588" lon="2.81585">
        <ele>526.88562011719</ele>
        <time>2020-06-06T09:17:20Z</time>
      </trkpt>
      <trkpt lat="43.53595" lon="2.81574">
        <ele>529.41943359375</ele>
        <time>2020-06-06T09:17:27Z</time>
      </trkpt>
      <trkpt lat="43.53593" lon="2.81562">
        <ele>529.51318359375</ele>
        <time>2020-06-06T09:17:35Z</time>
      </trkpt>
      <trkpt lat="43.53589" lon="2.81549">
        <ele>529.30871582031</ele>
        <time>2020-06-06T09:17:43Z</time>
      </trkpt>
      <trkpt lat="43.53594" lon="2.81536">
        <ele>526.97509765625</ele>
        <time>2020-06-06T09:17:53Z</time>
      </trkpt>
      <trkpt lat="43.53599" lon="2.8152">
        <ele>525.31384277344</ele>
        <time>2020-06-06T09:18:16Z</time>
      </trkpt>
      <trkpt lat="43.53596" lon="2.81507">
        <ele>524.95446777344</ele>
        <time>2020-06-06T09:18:25Z</time>
      </trkpt>
      <trkpt lat="43.53601" lon="2.81495">
        <ele>524.87426757812</ele>
        <time>2020-06-06T09:18:32Z</time>
      </trkpt>
      <trkpt lat="43.53605" lon="2.81483">
        <ele>526.84313964844</ele>
        <time>2020-06-06T09:18:51Z</time>
      </trkpt>
      <trkpt lat="43.53608" lon="2.81468">
        <ele>528.73315429688</ele>
        <time>2020-06-06T09:18:58Z</time>
      </trkpt>
      <trkpt lat="43.53613" lon="2.81455">
        <ele>528.54296875</ele>
        <time>2020-06-06T09:19:04Z</time>
      </trkpt>
      <trkpt lat="43.53618" lon="2.81442">
        <ele>528.31665039062</ele>
        <time>2020-06-06T09:19:11Z</time>
      </trkpt>
      <trkpt lat="43.53623" lon="2.81429">
        <ele>524.9541015625</ele>
        <time>2020-06-06T09:19:21Z</time>
      </trkpt>
      <trkpt lat="43.53628" lon="2.81418">
        <ele>524.63818359375</ele>
        <time>2020-06-06T09:19:29Z</time>
      </trkpt>
      <trkpt lat="43.53635" lon="2.81409">
        <ele>523.81103515625</ele>
        <time>2020-06-06T09:19:38Z</time>
      </trkpt>
      <trkpt lat="43.53642" lon="2.81398">
        <ele>521.73510742188</ele>
        <time>2020-06-06T09:19:47Z</time>
      </trkpt>
      <trkpt lat="43.5365" lon="2.81391">
        <ele>519.16052246094</ele>
        <time>2020-06-06T09:19:59Z</time>
      </trkpt>
      <trkpt lat="43.53655" lon="2.8138">
        <ele>517.8466796875</ele>
        <time>2020-06-06T09:20:10Z</time>
      </trkpt>
      <trkpt lat="43.5366" lon="2.81368">
        <ele>517.77087402344</ele>
        <time>2020-06-06T09:20:17Z</time>
      </trkpt>
      <trkpt lat="43.53663" lon="2.81354">
        <ele>523.70043945312</ele>
        <time>2020-06-06T09:20:25Z</time>
      </trkpt>
      <trkpt lat="43.53664" lon="2.81342">
        <ele>523.94995117188</ele>
        <time>2020-06-06T09:20:35Z</time>
      </trkpt>
      <trkpt lat="43.53666" lon="2.8133">
        <ele>528.53942871094</ele>
        <time>2020-06-06T09:21:07Z</time>
      </trkpt>
      <trkpt lat="43.53661" lon="2.81315">
        <ele>536.29077148438</ele>
        <time>2020-06-06T09:23:47Z</time>
      </trkpt>
      <trkpt lat="43.53661" lon="2.81301">
        <ele>536.47802734375</ele>
        <time>2020-06-06T09:24:04Z</time>
      </trkpt>
      <trkpt lat="43.53661" lon="2.81287">
        <ele>529.66040039062</ele>
        <time>2020-06-06T09:24:10Z</time>
      </trkpt>
      <trkpt lat="43.53661" lon="2.81274">
        <ele>526.62231445312</ele>
        <time>2020-06-06T09:24:16Z</time>
      </trkpt>
      <trkpt lat="43.53659" lon="2.8126">
        <ele>524.95727539062</ele>
        <time>2020-06-06T09:24:23Z</time>
      </trkpt>
      <trkpt lat="43.53657" lon="2.81248">
        <ele>520.47680664062</ele>
        <time>2020-06-06T09:24:47Z</time>
      </trkpt>
      <trkpt lat="43.53657" lon="2.81235">
        <ele>522.77099609375</ele>
        <time>2020-06-06T09:25:00Z</time>
      </trkpt>
      <trkpt lat="43.53658" lon="2.81219">
        <ele>519.48950195312</ele>
        <time>2020-06-06T09:25:29Z</time>
      </trkpt>
      <trkpt lat="43.53659" lon="2.81206">
        <ele>516.0810546875</ele>
        <time>2020-06-06T09:25:42Z</time>
      </trkpt>
      <trkpt lat="43.53658" lon="2.81191">
        <ele>511.92651367188</ele>
        <time>2020-06-06T09:25:50Z</time>
      </trkpt>
      <trkpt lat="43.53655" lon="2.81177">
        <ele>518.12475585938</ele>
        <time>2020-06-06T09:25:58Z</time>
      </trkpt>
      <trkpt lat="43.53652" lon="2.81163">
        <ele>514.65234375</ele>
        <time>2020-06-06T09:26:05Z</time>
      </trkpt>
      <trkpt lat="43.53649" lon="2.81149">
        <ele>515.30590820312</ele>
        <time>2020-06-06T09:26:13Z</time>
      </trkpt>
      <trkpt lat="43.53652" lon="2.81136">
        <ele>508.00146484375</ele>
        <time>2020-06-06T09:26:26Z</time>
      </trkpt>
      <trkpt lat="43.53657" lon="2.81126">
        <ele>504.17321777344</ele>
        <time>2020-06-06T09:26:41Z</time>
      </trkpt>
      <trkpt lat="43.53656" lon="2.81108">
        <ele>502.84252929688</ele>
        <time>2020-06-06T09:27:00Z</time>
      </trkpt>
      <trkpt lat="43.53651" lon="2.81097">
        <ele>495.14440917969</ele>
        <time>2020-06-06T09:27:52Z</time>
      </trkpt>
      <trkpt lat="43.53647" lon="2.81084">
        <ele>494.37939453125</ele>
        <time>2020-06-06T09:28:01Z</time>
      </trkpt>
      <trkpt lat="43.53644" lon="2.81071">
        <ele>490.00988769531</ele>
        <time>2020-06-06T09:28:16Z</time>
      </trkpt>
      <trkpt lat="43.53643" lon="2.81057">
        <ele>488.84631347656</ele>
        <time>2020-06-06T09:28:26Z</time>
      </trkpt>
      <trkpt lat="43.53646" lon="2.81045">
        <ele>485.86303710938</ele>
        <time>2020-06-06T09:28:37Z</time>
      </trkpt>
      <trkpt lat="43.53641" lon="2.81028">
        <ele>477.244140625</ele>
        <time>2020-06-06T09:29:03Z</time>
      </trkpt>
      <trkpt lat="43.53638" lon="2.81015">
        <ele>481.49951171875</ele>
        <time>2020-06-06T09:29:12Z</time>
      </trkpt>
      <trkpt lat="43.53633" lon="2.81004">
        <ele>483.14404296875</ele>
        <time>2020-06-06T09:29:20Z</time>
      </trkpt>
      <trkpt lat="43.53627" lon="2.80994">
        <ele>473.58880615234</ele>
        <time>2020-06-06T09:29:37Z</time>
      </trkpt>
      <trkpt lat="43.53614" lon="2.80992">
        <ele>476.47985839844</ele>
        <time>2020-06-06T09:30:07Z</time>
      </trkpt>
      <trkpt lat="43.53619" lon="2.80977">
        <ele>463.74987792969</ele>
        <time>2020-06-06T09:30:45Z</time>
      </trkpt>
      <trkpt lat="43.53616" lon="2.80964">
        <ele>464.53631591797</ele>
        <time>2020-06-06T09:31:12Z</time>
      </trkpt>
      <trkpt lat="43.53616" lon="2.8095">
        <ele>465.24200439453</ele>
        <time>2020-06-06T09:31:21Z</time>
      </trkpt>
      <trkpt lat="43.53608" lon="2.80937">
        <ele>462.60766601562</ele>
        <time>2020-06-06T09:31:27Z</time>
      </trkpt>
      <trkpt lat="43.53608" lon="2.80925">
        <ele>456.2646484375</ele>
        <time>2020-06-06T09:31:46Z</time>
      </trkpt>
      <trkpt lat="43.53606" lon="2.80912">
        <ele>456.11859130859</ele>
        <time>2020-06-06T09:31:59Z</time>
      </trkpt>
      <trkpt lat="43.53605" lon="2.80897">
        <ele>454.80798339844</ele>
        <time>2020-06-06T09:32:09Z</time>
      </trkpt>
      <trkpt lat="43.53602" lon="2.80884">
        <ele>457.08410644531</ele>
        <time>2020-06-06T09:32:19Z</time>
      </trkpt>
      <trkpt lat="43.53602" lon="2.80871">
        <ele>455.41571044922</ele>
        <time>2020-06-06T09:32:29Z</time>
      </trkpt>
      <trkpt lat="43.53602" lon="2.80857">
        <ele>449.84124755859</ele>
        <time>2020-06-06T09:32:44Z</time>
      </trkpt>
      <trkpt lat="43.53602" lon="2.80845">
        <ele>452.05108642578</ele>
        <time>2020-06-06T09:32:54Z</time>
      </trkpt>
      <trkpt lat="43.53601" lon="2.80832">
        <ele>453.794921875</ele>
        <time>2020-06-06T09:33:09Z</time>
      </trkpt>
      <trkpt lat="43.53599" lon="2.8082">
        <ele>452.32238769531</ele>
        <time>2020-06-06T09:33:20Z</time>
      </trkpt>
      <trkpt lat="43.53602" lon="2.80807">
        <ele>452.56201171875</ele>
        <time>2020-06-06T09:33:41Z</time>
      </trkpt>
      <trkpt lat="43.53597" lon="2.80796">
        <ele>451.42517089844</ele>
        <time>2020-06-06T09:33:54Z</time>
      </trkpt>
      <trkpt lat="43.53596" lon="2.80783">
        <ele>450.69018554688</ele>
        <time>2020-06-06T09:34:16Z</time>
      </trkpt>
      <trkpt lat="43.53592" lon="2.80771">
        <ele>451.59100341797</ele>
        <time>2020-06-06T09:34:25Z</time>
      </trkpt>
      <trkpt lat="43.53589" lon="2.80758">
        <ele>448.37841796875</ele>
        <time>2020-06-06T09:34:33Z</time>
      </trkpt>
      <trkpt lat="43.5359" lon="2.80745">
        <ele>445.01342773438</ele>
        <time>2020-06-06T09:34:45Z</time>
      </trkpt>
      <trkpt lat="43.53589" lon="2.80732">
        <ele>444.2041015625</ele>
        <time>2020-06-06T09:35:01Z</time>
      </trkpt>
      <trkpt lat="43.53585" lon="2.80717">
        <ele>439.09692382812</ele>
        <time>2020-06-06T09:35:17Z</time>
      </trkpt>
      <trkpt lat="43.53586" lon="2.80704">
        <ele>437.72729492188</ele>
        <time>2020-06-06T09:35:30Z</time>
      </trkpt>
      <trkpt lat="43.53583" lon="2.80692">
        <ele>435.42114257812</ele>
        <time>2020-06-06T09:35:47Z</time>
      </trkpt>
      <trkpt lat="43.5358" lon="2.80679">
        <ele>438.51293945312</ele>
        <time>2020-06-06T09:36:06Z</time>
      </trkpt>
      <trkpt lat="43.53577" lon="2.80665">
        <ele>437.94647216797</ele>
        <time>2020-06-06T09:36:14Z</time>
      </trkpt>
      <trkpt lat="43.5358" lon="2.80652">
        <ele>428.18676757812</ele>
        <time>2020-06-06T09:36:29Z</time>
      </trkpt>
      <trkpt lat="43.53588" lon="2.80644">
        <ele>430.82800292969</ele>
        <time>2020-06-06T09:36:41Z</time>
      </trkpt>
      <trkpt lat="43.53581" lon="2.80634">
        <ele>430.275390625</ele>
        <time>2020-06-06T09:37:27Z</time>
      </trkpt>
      <trkpt lat="43.53572" lon="2.8063">
        <ele>430.6181640625</ele>
        <time>2020-06-06T09:37:35Z</time>
      </trkpt>
      <trkpt lat="43.53565" lon="2.80621">
        <ele>430.33740234375</ele>
        <time>2020-06-06T09:37:47Z</time>
      </trkpt>
      <trkpt lat="43.53571" lon="2.80611">
        <ele>423.26770019531</ele>
        <time>2020-06-06T09:37:56Z</time>
      </trkpt>
      <trkpt lat="43.53581" lon="2.80607">
        <ele>424.1708984375</ele>
        <time>2020-06-06T09:38:06Z</time>
      </trkpt>
      <trkpt lat="43.53591" lon="2.80612">
        <ele>424.56634521484</ele>
        <time>2020-06-06T09:38:17Z</time>
      </trkpt>
      <trkpt lat="43.536" lon="2.80615">
        <ele>421.71728515625</ele>
        <time>2020-06-06T09:38:28Z</time>
      </trkpt>
      <trkpt lat="43.53609" lon="2.80618">
        <ele>418.89074707031</ele>
        <time>2020-06-06T09:38:39Z</time>
      </trkpt>
      <trkpt lat="43.53618" lon="2.80625">
        <ele>421.18444824219</ele>
        <time>2020-06-06T09:38:49Z</time>
      </trkpt>
      <trkpt lat="43.53625" lon="2.80634">
        <ele>421.89465332031</ele>
        <time>2020-06-06T09:38:59Z</time>
      </trkpt>
      <trkpt lat="43.53632" lon="2.80644">
        <ele>418.14959716797</ele>
        <time>2020-06-06T09:39:09Z</time>
      </trkpt>
      <trkpt lat="43.53639" lon="2.80654">
        <ele>417.97375488281</ele>
        <time>2020-06-06T09:39:16Z</time>
      </trkpt>
      <trkpt lat="43.53649" lon="2.80659">
        <ele>420.041015625</ele>
        <time>2020-06-06T09:39:24Z</time>
      </trkpt>
      <trkpt lat="43.53658" lon="2.80664">
        <ele>417.25933837891</ele>
        <time>2020-06-06T09:39:36Z</time>
      </trkpt>
      <trkpt lat="43.53666" lon="2.8067">
        <ele>415.12896728516</ele>
        <time>2020-06-06T09:39:46Z</time>
      </trkpt>
      <trkpt lat="43.53675" lon="2.80678">
        <ele>413.52062988281</ele>
        <time>2020-06-06T09:39:57Z</time>
      </trkpt>
      <trkpt lat="43.53685" lon="2.8068">
        <ele>413.07897949219</ele>
        <time>2020-06-06T09:40:09Z</time>
      </trkpt>
      <trkpt lat="43.53694" lon="2.80683">
        <ele>415.16174316406</ele>
        <time>2020-06-06T09:40:21Z</time>
      </trkpt>
      <trkpt lat="43.53703" lon="2.80687">
        <ele>412.51885986328</ele>
        <time>2020-06-06T09:40:30Z</time>
      </trkpt>
      <trkpt lat="43.53713" lon="2.80688">
        <ele>410.35467529297</ele>
        <time>2020-06-06T09:40:39Z</time>
      </trkpt>
      <trkpt lat="43.53723" lon="2.80685">
        <ele>409.63220214844</ele>
        <time>2020-06-06T09:40:48Z</time>
      </trkpt>
      <trkpt lat="43.53733" lon="2.80684">
        <ele>413.20599365234</ele>
        <time>2020-06-06T09:40:56Z</time>
      </trkpt>
      <trkpt lat="43.53743" lon="2.8068">
        <ele>410.80798339844</ele>
        <time>2020-06-06T09:41:04Z</time>
      </trkpt>
      <trkpt lat="43.53755" lon="2.8068">
        <ele>404.52111816406</ele>
        <time>2020-06-06T09:41:17Z</time>
      </trkpt>
      <trkpt lat="43.53766" lon="2.8068">
        <ele>404.68170166016</ele>
        <time>2020-06-06T09:41:25Z</time>
      </trkpt>
      <trkpt lat="43.53776" lon="2.80675">
        <ele>395.62854003906</ele>
        <time>2020-06-06T09:41:36Z</time>
      </trkpt>
      <trkpt lat="43.53784" lon="2.80668">
        <ele>396.6240234375</ele>
        <time>2020-06-06T09:41:45Z</time>
      </trkpt>
      <trkpt lat="43.5379" lon="2.80657">
        <ele>398.76159667969</ele>
        <time>2020-06-06T09:41:55Z</time>
      </trkpt>
      <trkpt lat="43.53797" lon="2.80648">
        <ele>394.13903808594</ele>
        <time>2020-06-06T09:42:06Z</time>
      </trkpt>
      <trkpt lat="43.53806" lon="2.80639">
        <ele>393.09924316406</ele>
        <time>2020-06-06T09:42:13Z</time>
      </trkpt>
      <trkpt lat="43.53815" lon="2.80638">
        <ele>388.181640625</ele>
        <time>2020-06-06T09:42:26Z</time>
      </trkpt>
      <trkpt lat="43.53825" lon="2.80634">
        <ele>386.13354492188</ele>
        <time>2020-06-06T09:42:40Z</time>
      </trkpt>
      <trkpt lat="43.53835" lon="2.80627">
        <ele>381.7587890625</ele>
        <time>2020-06-06T09:42:54Z</time>
      </trkpt>
      <trkpt lat="43.53842" lon="2.80618">
        <ele>383.08349609375</ele>
        <time>2020-06-06T09:43:02Z</time>
      </trkpt>
      <trkpt lat="43.5385" lon="2.8061">
        <ele>385.16625976562</ele>
        <time>2020-06-06T09:43:14Z</time>
      </trkpt>
      <trkpt lat="43.53855" lon="2.80594">
        <ele>386.39294433594</ele>
        <time>2020-06-06T09:43:35Z</time>
      </trkpt>
      <trkpt lat="43.53856" lon="2.8058">
        <ele>385.45166015625</ele>
        <time>2020-06-06T09:43:45Z</time>
      </trkpt>
      <trkpt lat="43.53857" lon="2.80566">
        <ele>389.46411132812</ele>
        <time>2020-06-06T09:43:56Z</time>
      </trkpt>
      <trkpt lat="43.53853" lon="2.80553">
        <ele>392.80041503906</ele>
        <time>2020-06-06T09:44:07Z</time>
      </trkpt>
      <trkpt lat="43.53853" lon="2.80539">
        <ele>392.50128173828</ele>
        <time>2020-06-06T09:44:19Z</time>
      </trkpt>
      <trkpt lat="43.53862" lon="2.80532">
        <ele>397.31402587891</ele>
        <time>2020-06-06T09:44:33Z</time>
      </trkpt>
      <trkpt lat="43.5387" lon="2.80525">
        <ele>403.40368652344</ele>
        <time>2020-06-06T09:44:47Z</time>
      </trkpt>
      <trkpt lat="43.53879" lon="2.80521">
        <ele>392.06274414062</ele>
        <time>2020-06-06T09:44:59Z</time>
      </trkpt>
      <trkpt lat="43.53884" lon="2.8051">
        <ele>400.49658203125</ele>
        <time>2020-06-06T09:46:03Z</time>
      </trkpt>
      <trkpt lat="43.53891" lon="2.805">
        <ele>402.37915039062</ele>
        <time>2020-06-06T09:46:13Z</time>
      </trkpt>
      <trkpt lat="43.53902" lon="2.80493">
        <ele>406.66711425781</ele>
        <time>2020-06-06T09:46:31Z</time>
      </trkpt>
      <trkpt lat="43.5391" lon="2.80486">
        <ele>417.97204589844</ele>
        <time>2020-06-06T09:47:16Z</time>
      </trkpt>
      <trkpt lat="43.53913" lon="2.8047">
        <ele>412.32971191406</ele>
        <time>2020-06-06T09:47:32Z</time>
      </trkpt>
      <trkpt lat="43.53903" lon="2.80463">
        <ele>416.8876953125</ele>
        <time>2020-06-06T09:47:57Z</time>
      </trkpt>
      <trkpt lat="43.5389" lon="2.80468">
        <ele>420.69714355469</ele>
        <time>2020-06-06T09:48:31Z</time>
      </trkpt>
      <trkpt lat="43.53879" lon="2.80463">
        <ele>424.35717773438</ele>
        <time>2020-06-06T09:48:38Z</time>
      </trkpt>
      <trkpt lat="43.5387" lon="2.80467">
        <ele>422.47650146484</ele>
        <time>2020-06-06T09:48:48Z</time>
      </trkpt>
      <trkpt lat="43.53862" lon="2.80475">
        <ele>427.70068359375</ele>
        <time>2020-06-06T09:48:57Z</time>
      </trkpt>
      <trkpt lat="43.53852" lon="2.80472">
        <ele>430.81732177734</ele>
        <time>2020-06-06T09:49:15Z</time>
      </trkpt>
      <trkpt lat="43.53843" lon="2.80469">
        <ele>430.32745361328</ele>
        <time>2020-06-06T09:49:21Z</time>
      </trkpt>
      <trkpt lat="43.53836" lon="2.80459">
        <ele>423.00921630859</ele>
        <time>2020-06-06T09:49:34Z</time>
      </trkpt>
      <trkpt lat="43.53829" lon="2.80449">
        <ele>428.77984619141</ele>
        <time>2020-06-06T09:49:44Z</time>
      </trkpt>
      <trkpt lat="43.53822" lon="2.8044">
        <ele>430.60296630859</ele>
        <time>2020-06-06T09:49:53Z</time>
      </trkpt>
      <trkpt lat="43.53819" lon="2.80427">
        <ele>431.70666503906</ele>
        <time>2020-06-06T09:50:31Z</time>
      </trkpt>
      <trkpt lat="43.53819" lon="2.80411">
        <ele>434.57458496094</ele>
        <time>2020-06-06T09:50:39Z</time>
      </trkpt>
      <trkpt lat="43.53814" lon="2.80398">
        <ele>437.47637939453</ele>
        <time>2020-06-06T09:50:46Z</time>
      </trkpt>
      <trkpt lat="43.53809" lon="2.80385">
        <ele>443.76843261719</ele>
        <time>2020-06-06T09:50:56Z</time>
      </trkpt>
      <trkpt lat="43.538" lon="2.80371">
        <ele>446.42156982422</ele>
        <time>2020-06-06T09:51:10Z</time>
      </trkpt>
      <trkpt lat="43.53794" lon="2.80361">
        <ele>447.0810546875</ele>
        <time>2020-06-06T09:51:19Z</time>
      </trkpt>
      <trkpt lat="43.53788" lon="2.80349">
        <ele>445.43701171875</ele>
        <time>2020-06-06T09:51:33Z</time>
      </trkpt>
      <trkpt lat="43.53782" lon="2.80334">
        <ele>442.47961425781</ele>
        <time>2020-06-06T09:52:06Z</time>
      </trkpt>
      <trkpt lat="43.53774" lon="2.80319">
        <ele>442.47265625</ele>
        <time>2020-06-06T09:53:09Z</time>
      </trkpt>
      <trkpt lat="43.53778" lon="2.80305">
        <ele>440.42419433594</ele>
        <time>2020-06-06T09:53:21Z</time>
      </trkpt>
      <trkpt lat="43.53776" lon="2.80292">
        <ele>445.08154296875</ele>
        <time>2020-06-06T09:53:29Z</time>
      </trkpt>
      <trkpt lat="43.53766" lon="2.80289">
        <ele>448.09521484375</ele>
        <time>2020-06-06T09:54:20Z</time>
      </trkpt>
      <trkpt lat="43.53762" lon="2.80276">
        <ele>453.82604980469</ele>
        <time>2020-06-06T09:54:31Z</time>
      </trkpt>
      <trkpt lat="43.53759" lon="2.80263">
        <ele>446.75927734375</ele>
        <time>2020-06-06T09:54:51Z</time>
      </trkpt>
      <trkpt lat="43.53755" lon="2.80246">
        <ele>451.28234863281</ele>
        <time>2020-06-06T09:55:11Z</time>
      </trkpt>
      <trkpt lat="43.53751" lon="2.80233">
        <ele>462.37438964844</ele>
        <time>2020-06-06T09:55:29Z</time>
      </trkpt>
      <trkpt lat="43.53747" lon="2.80221">
        <ele>464.14349365234</ele>
        <time>2020-06-06T09:55:44Z</time>
      </trkpt>
      <trkpt lat="43.53744" lon="2.80209">
        <ele>464.93780517578</ele>
        <time>2020-06-06T09:55:52Z</time>
      </trkpt>
      <trkpt lat="43.53739" lon="2.80197">
        <ele>465.28088378906</ele>
        <time>2020-06-06T09:55:57Z</time>
      </trkpt>
      <trkpt lat="43.53738" lon="2.80183">
        <ele>467.95654296875</ele>
        <time>2020-06-06T09:56:04Z</time>
      </trkpt>
      <trkpt lat="43.53741" lon="2.80157">
        <ele>468.24865722656</ele>
        <time>2020-06-06T09:56:10Z</time>
      </trkpt>
      <trkpt lat="43.53738" lon="2.80175">
        <ele>467.14562988281</ele>
        <time>2020-06-06T09:56:12Z</time>
      </trkpt>
      <trkpt lat="43.53741" lon="2.80158">
        <ele>435.80001831055</ele>
        <time>2020-06-06T09:56:16Z</time>
      </trkpt>
      <trkpt lat="43.53747" lon="2.80174">
        <ele>435.80001831055</ele>
        <time>2020-06-06T09:56:21Z</time>
      </trkpt>
      <trkpt lat="43.53745" lon="2.80156">
        <ele>435.80001831055</ele>
        <time>2020-06-06T09:56:48Z</time>
      </trkpt>
      <trkpt lat="43.53748" lon="2.80175">
        <ele>435.80001831055</ele>
        <time>2020-06-06T09:56:51Z</time>
      </trkpt>
      <trkpt lat="43.53746" lon="2.80162">
        <ele>435.80001831055</ele>
        <time>2020-06-06T09:57:19Z</time>
      </trkpt>
      <trkpt lat="43.53753" lon="2.80169">
        <ele>435.80001831055</ele>
        <time>2020-06-06T10:03:21Z</time>
      </trkpt>
      <trkpt lat="43.53747" lon="2.80157">
        <ele>435.80001831055</ele>
        <time>2020-06-06T10:42:36Z</time>
      </trkpt>
      <trkpt lat="43.53744" lon="2.80145">
        <ele>435.80001831055</ele>
        <time>2020-06-06T10:42:43Z</time>
      </trkpt>
      <trkpt lat="43.53747" lon="2.80163">
        <ele>435.80001831055</ele>
        <time>2020-06-06T10:42:51Z</time>
      </trkpt>
      <trkpt lat="43.53758" lon="2.80162">
        <ele>435.80001831055</ele>
        <time>2020-06-06T10:43:32Z</time>
      </trkpt>
      <trkpt lat="43.53769" lon="2.80161">
        <ele>435.80001831055</ele>
        <time>2020-06-06T10:43:38Z</time>
      </trkpt>
      <trkpt lat="43.53776" lon="2.80171">
        <ele>435.80001831055</ele>
        <time>2020-06-06T10:43:48Z</time>
      </trkpt>
      <trkpt lat="43.53783" lon="2.8018">
        <ele>458.05261230469</ele>
        <time>2020-06-06T10:43:57Z</time>
      </trkpt>
      <trkpt lat="43.53778" lon="2.80194">
        <ele>455.85888671875</ele>
        <time>2020-06-06T10:44:03Z</time>
      </trkpt>
      <trkpt lat="43.53786" lon="2.802">
        <ele>453.13696289062</ele>
        <time>2020-06-06T10:44:21Z</time>
      </trkpt>
      <trkpt lat="43.53792" lon="2.80212">
        <ele>455.93591308594</ele>
        <time>2020-06-06T10:44:32Z</time>
      </trkpt>
      <trkpt lat="43.53805" lon="2.80218">
        <ele>460.51153564453</ele>
        <time>2020-06-06T10:44:45Z</time>
      </trkpt>
      <trkpt lat="43.53813" lon="2.80225">
        <ele>459.85766601562</ele>
        <time>2020-06-06T10:45:00Z</time>
      </trkpt>
      <trkpt lat="43.53823" lon="2.80234">
        <ele>466.61401367188</ele>
        <time>2020-06-06T10:45:20Z</time>
      </trkpt>
      <trkpt lat="43.53833" lon="2.80237">
        <ele>459.88739013672</ele>
        <time>2020-06-06T10:45:33Z</time>
      </trkpt>
      <trkpt lat="43.5384" lon="2.80247">
        <ele>456.97644042969</ele>
        <time>2020-06-06T10:45:46Z</time>
      </trkpt>
      <trkpt lat="43.53848" lon="2.80252">
        <ele>460.458984375</ele>
        <time>2020-06-06T10:45:56Z</time>
      </trkpt>
      <trkpt lat="43.53858" lon="2.80252">
        <ele>464.00622558594</ele>
        <time>2020-06-06T10:46:12Z</time>
      </trkpt>
      <trkpt lat="43.53866" lon="2.80261">
        <ele>466.61975097656</ele>
        <time>2020-06-06T10:46:21Z</time>
      </trkpt>
      <trkpt lat="43.53868" lon="2.80273">
        <ele>463.24340820312</ele>
        <time>2020-06-06T10:46:31Z</time>
      </trkpt>
      <trkpt lat="43.53875" lon="2.80287">
        <ele>460.70031738281</ele>
        <time>2020-06-06T10:48:07Z</time>
      </trkpt>
      <trkpt lat="43.53881" lon="2.80299">
        <ele>462.28912353516</ele>
        <time>2020-06-06T10:48:14Z</time>
      </trkpt>
      <trkpt lat="43.53886" lon="2.8031">
        <ele>461.89599609375</ele>
        <time>2020-06-06T10:48:24Z</time>
      </trkpt>
      <trkpt lat="43.53891" lon="2.80321">
        <ele>462.2138671875</ele>
        <time>2020-06-06T10:48:34Z</time>
      </trkpt>
      <trkpt lat="43.53898" lon="2.80312">
        <ele>467.44897460938</ele>
        <time>2020-06-06T10:49:01Z</time>
      </trkpt>
      <trkpt lat="43.53907" lon="2.80302">
        <ele>477.23901367188</ele>
        <time>2020-06-06T10:49:25Z</time>
      </trkpt>
      <trkpt lat="43.53903" lon="2.80288">
        <ele>483.93640136719</ele>
        <time>2020-06-06T10:49:37Z</time>
      </trkpt>
      <trkpt lat="43.53906" lon="2.80275">
        <ele>486.44494628906</ele>
        <time>2020-06-06T10:49:54Z</time>
      </trkpt>
      <trkpt lat="43.53907" lon="2.80262">
        <ele>484.10766601562</ele>
        <time>2020-06-06T10:50:13Z</time>
      </trkpt>
      <trkpt lat="43.53918" lon="2.80253">
        <ele>491.7216796875</ele>
        <time>2020-06-06T10:50:32Z</time>
      </trkpt>
      <trkpt lat="43.53928" lon="2.80251">
        <ele>492.06286621094</ele>
        <time>2020-06-06T10:50:46Z</time>
      </trkpt>
      <trkpt lat="43.53934" lon="2.80242">
        <ele>504.14038085938</ele>
        <time>2020-06-06T10:51:05Z</time>
      </trkpt>
      <trkpt lat="43.53939" lon="2.80228">
        <ele>499.802734375</ele>
        <time>2020-06-06T10:51:18Z</time>
      </trkpt>
      <trkpt lat="43.53945" lon="2.80217">
        <ele>501.78564453125</ele>
        <time>2020-06-06T10:51:43Z</time>
      </trkpt>
      <trkpt lat="43.53951" lon="2.80207">
        <ele>510.87475585938</ele>
        <time>2020-06-06T10:51:57Z</time>
      </trkpt>
      <trkpt lat="43.53953" lon="2.80194">
        <ele>507.80688476562</ele>
        <time>2020-06-06T10:52:10Z</time>
      </trkpt>
      <trkpt lat="43.53956" lon="2.8018">
        <ele>506.74194335938</ele>
        <time>2020-06-06T10:52:24Z</time>
      </trkpt>
      <trkpt lat="43.53953" lon="2.80167">
        <ele>507.98046875</ele>
        <time>2020-06-06T10:52:34Z</time>
      </trkpt>
      <trkpt lat="43.53957" lon="2.80155">
        <ele>510.62255859375</ele>
        <time>2020-06-06T10:53:18Z</time>
      </trkpt>
      <trkpt lat="43.53968" lon="2.80151">
        <ele>509.4873046875</ele>
        <time>2020-06-06T10:53:24Z</time>
      </trkpt>
      <trkpt lat="43.53977" lon="2.8015">
        <ele>517.10424804688</ele>
        <time>2020-06-06T10:53:31Z</time>
      </trkpt>
      <trkpt lat="43.53989" lon="2.80145">
        <ele>513.576171875</ele>
        <time>2020-06-06T10:53:59Z</time>
      </trkpt>
      <trkpt lat="43.53992" lon="2.80129">
        <ele>509.33227539062</ele>
        <time>2020-06-06T10:54:13Z</time>
      </trkpt>
      <trkpt lat="43.53995" lon="2.80116">
        <ele>511.13977050781</ele>
        <time>2020-06-06T10:54:26Z</time>
      </trkpt>
      <trkpt lat="43.53999" lon="2.80105">
        <ele>507.81713867188</ele>
        <time>2020-06-06T10:54:42Z</time>
      </trkpt>
      <trkpt lat="43.53992" lon="2.80093">
        <ele>507.45495605469</ele>
        <time>2020-06-06T10:55:28Z</time>
      </trkpt>
      <trkpt lat="43.53994" lon="2.8008">
        <ele>516.26049804688</ele>
        <time>2020-06-06T10:55:40Z</time>
      </trkpt>
      <trkpt lat="43.53994" lon="2.80065">
        <ele>512.70434570312</ele>
        <time>2020-06-06T10:56:38Z</time>
      </trkpt>
      <trkpt lat="43.53993" lon="2.80049">
        <ele>508.32421875</ele>
        <time>2020-06-06T10:56:43Z</time>
      </trkpt>
      <trkpt lat="43.53993" lon="2.80035">
        <ele>510.59948730469</ele>
        <time>2020-06-06T10:56:51Z</time>
      </trkpt>
      <trkpt lat="43.53998" lon="2.80017">
        <ele>533.7587890625</ele>
        <time>2020-06-06T10:57:38Z</time>
      </trkpt>
      <trkpt lat="43.54001" lon="2.80004">
        <ele>538.05419921875</ele>
        <time>2020-06-06T10:58:15Z</time>
      </trkpt>
      <trkpt lat="43.54005" lon="2.79992">
        <ele>541.7158203125</ele>
        <time>2020-06-06T10:58:25Z</time>
      </trkpt>
      <trkpt lat="43.54005" lon="2.79979">
        <ele>544.76318359375</ele>
        <time>2020-06-06T10:58:39Z</time>
      </trkpt>
      <trkpt lat="43.54014" lon="2.79973">
        <ele>551.12634277344</ele>
        <time>2020-06-06T10:58:59Z</time>
      </trkpt>
      <trkpt lat="43.5402" lon="2.79964">
        <ele>549.4951171875</ele>
        <time>2020-06-06T10:59:33Z</time>
      </trkpt>
      <trkpt lat="43.54027" lon="2.79953">
        <ele>544.33752441406</ele>
        <time>2020-06-06T10:59:41Z</time>
      </trkpt>
      <trkpt lat="43.5403" lon="2.79941">
        <ele>548.8271484375</ele>
        <time>2020-06-06T10:59:54Z</time>
      </trkpt>
      <trkpt lat="43.54033" lon="2.79927">
        <ele>549.43920898438</ele>
        <time>2020-06-06T11:01:48Z</time>
      </trkpt>
      <trkpt lat="43.54032" lon="2.79908">
        <ele>556.87219238281</ele>
        <time>2020-06-06T11:02:15Z</time>
      </trkpt>
      <trkpt lat="43.54031" lon="2.79895">
        <ele>566.75390625</ele>
        <time>2020-06-06T11:02:30Z</time>
      </trkpt>
      <trkpt lat="43.5403" lon="2.79882">
        <ele>568.75830078125</ele>
        <time>2020-06-06T11:02:44Z</time>
      </trkpt>
      <trkpt lat="43.54027" lon="2.79869">
        <ele>561.33813476562</ele>
        <time>2020-06-06T11:02:58Z</time>
      </trkpt>
      <trkpt lat="43.54036" lon="2.79869">
        <ele>559.17553710938</ele>
        <time>2020-06-06T11:03:17Z</time>
      </trkpt>
      <trkpt lat="43.54044" lon="2.7986">
        <ele>556.90551757812</ele>
        <time>2020-06-06T11:03:29Z</time>
      </trkpt>
      <trkpt lat="43.54053" lon="2.79856">
        <ele>558.31079101562</ele>
        <time>2020-06-06T11:03:40Z</time>
      </trkpt>
      <trkpt lat="43.54062" lon="2.79842">
        <ele>566.96020507812</ele>
        <time>2020-06-06T11:04:23Z</time>
      </trkpt>
      <trkpt lat="43.54072" lon="2.79839">
        <ele>564.84399414062</ele>
        <time>2020-06-06T11:04:31Z</time>
      </trkpt>
      <trkpt lat="43.54082" lon="2.79842">
        <ele>574.23742675781</ele>
        <time>2020-06-06T11:04:41Z</time>
      </trkpt>
      <trkpt lat="43.54091" lon="2.79836">
        <ele>576.11999511719</ele>
        <time>2020-06-06T11:04:51Z</time>
      </trkpt>
      <trkpt lat="43.54097" lon="2.79826">
        <ele>577.85217285156</ele>
        <time>2020-06-06T11:05:12Z</time>
      </trkpt>
      <trkpt lat="43.54104" lon="2.79818">
        <ele>577.20483398438</ele>
        <time>2020-06-06T11:05:23Z</time>
      </trkpt>
      <trkpt lat="43.54113" lon="2.79812">
        <ele>577.21240234375</ele>
        <time>2020-06-06T11:06:08Z</time>
      </trkpt>
      <trkpt lat="43.54121" lon="2.79803">
        <ele>570.87573242188</ele>
        <time>2020-06-06T11:06:21Z</time>
      </trkpt>
      <trkpt lat="43.5413" lon="2.79801">
        <ele>571.6044921875</ele>
        <time>2020-06-06T11:06:29Z</time>
      </trkpt>
      <trkpt lat="43.54139" lon="2.79796">
        <ele>571.91357421875</ele>
        <time>2020-06-06T11:06:41Z</time>
      </trkpt>
      <trkpt lat="43.54147" lon="2.79789">
        <ele>576.01928710938</ele>
        <time>2020-06-06T11:06:52Z</time>
      </trkpt>
      <trkpt lat="43.54155" lon="2.79781">
        <ele>574.72021484375</ele>
        <time>2020-06-06T11:07:03Z</time>
      </trkpt>
      <trkpt lat="43.54163" lon="2.79775">
        <ele>569.10766601562</ele>
        <time>2020-06-06T11:07:36Z</time>
      </trkpt>
      <trkpt lat="43.54171" lon="2.79766">
        <ele>559.22216796875</ele>
        <time>2020-06-06T11:07:51Z</time>
      </trkpt>
      <trkpt lat="43.5418" lon="2.79766">
        <ele>561.087890625</ele>
        <time>2020-06-06T11:08:01Z</time>
      </trkpt>
      <trkpt lat="43.54186" lon="2.79755">
        <ele>551.06042480469</ele>
        <time>2020-06-06T11:08:15Z</time>
      </trkpt>
      <trkpt lat="43.54195" lon="2.79752">
        <ele>551.24731445312</ele>
        <time>2020-06-06T11:08:31Z</time>
      </trkpt>
      <trkpt lat="43.54204" lon="2.79748">
        <ele>547.90063476562</ele>
        <time>2020-06-06T11:08:58Z</time>
      </trkpt>
      <trkpt lat="43.54207" lon="2.79736">
        <ele>543.59924316406</ele>
        <time>2020-06-06T11:09:14Z</time>
      </trkpt>
      <trkpt lat="43.54218" lon="2.79724">
        <ele>552.99206542969</ele>
        <time>2020-06-06T11:10:15Z</time>
      </trkpt>
      <trkpt lat="43.54227" lon="2.79718">
        <ele>550.40075683594</ele>
        <time>2020-06-06T11:10:28Z</time>
      </trkpt>
      <trkpt lat="43.54235" lon="2.79709">
        <ele>551.91052246094</ele>
        <time>2020-06-06T11:10:53Z</time>
      </trkpt>
      <trkpt lat="43.54244" lon="2.79711">
        <ele>551.900390625</ele>
        <time>2020-06-06T11:11:28Z</time>
      </trkpt>
      <trkpt lat="43.54253" lon="2.79706">
        <ele>545.66284179688</ele>
        <time>2020-06-06T11:11:40Z</time>
      </trkpt>
      <trkpt lat="43.54262" lon="2.79713">
        <ele>546.89184570312</ele>
        <time>2020-06-06T11:12:54Z</time>
      </trkpt>
      <trkpt lat="43.5427" lon="2.79721">
        <ele>544.92639160156</ele>
        <time>2020-06-06T11:13:03Z</time>
      </trkpt>
      <trkpt lat="43.54261" lon="2.79722">
        <ele>547.59033203125</ele>
        <time>2020-06-06T11:15:02Z</time>
      </trkpt>
      <trkpt lat="43.54264" lon="2.7971">
        <ele>546.81787109375</ele>
        <time>2020-06-06T11:15:20Z</time>
      </trkpt>
      <trkpt lat="43.54274" lon="2.7972">
        <ele>554.38012695312</ele>
        <time>2020-06-06T11:16:47Z</time>
      </trkpt>
      <trkpt lat="43.54265" lon="2.79707">
        <ele>543.91931152344</ele>
        <time>2020-06-06T11:24:00Z</time>
      </trkpt>
      <trkpt lat="43.54273" lon="2.79693">
        <ele>539.26977539062</ele>
        <time>2020-06-06T11:25:29Z</time>
      </trkpt>
      <trkpt lat="43.54283" lon="2.79691">
        <ele>542.33862304688</ele>
        <time>2020-06-06T11:28:06Z</time>
      </trkpt>
      <trkpt lat="43.54292" lon="2.79705">
        <ele>549.3447265625</ele>
        <time>2020-06-06T11:29:09Z</time>
      </trkpt>
      <trkpt lat="43.54301" lon="2.79709">
        <ele>552.8916015625</ele>
        <time>2020-06-06T11:29:24Z</time>
      </trkpt>
      <trkpt lat="43.54315" lon="2.79705">
        <ele>549.4912109375</ele>
        <time>2020-06-06T11:30:02Z</time>
      </trkpt>
      <trkpt lat="43.54327" lon="2.79712">
        <ele>553.27856445312</ele>
        <time>2020-06-06T11:31:33Z</time>
      </trkpt>
      <trkpt lat="43.54336" lon="2.79718">
        <ele>573.78198242188</ele>
        <time>2020-06-06T11:37:37Z</time>
      </trkpt>
      <trkpt lat="43.54343" lon="2.79727">
        <ele>577.35522460938</ele>
        <time>2020-06-06T11:37:47Z</time>
      </trkpt>
      <trkpt lat="43.54348" lon="2.79738">
        <ele>584.18322753906</ele>
        <time>2020-06-06T11:37:58Z</time>
      </trkpt>
      <trkpt lat="43.54351" lon="2.7975">
        <ele>591.64306640625</ele>
        <time>2020-06-06T11:38:08Z</time>
      </trkpt>
      <trkpt lat="43.54358" lon="2.79759">
        <ele>589.41564941406</ele>
        <time>2020-06-06T11:38:17Z</time>
      </trkpt>
      <trkpt lat="43.54367" lon="2.79767">
        <ele>582.73962402344</ele>
        <time>2020-06-06T11:38:28Z</time>
      </trkpt>
      <trkpt lat="43.54377" lon="2.79778">
        <ele>585.16076660156</ele>
        <time>2020-06-06T11:38:42Z</time>
      </trkpt>
      <trkpt lat="43.54388" lon="2.79774">
        <ele>586.96020507812</ele>
        <time>2020-06-06T11:39:56Z</time>
      </trkpt>
      <trkpt lat="43.54395" lon="2.79765">
        <ele>603.62243652344</ele>
        <time>2020-06-06T11:41:06Z</time>
      </trkpt>
      <trkpt lat="43.54408" lon="2.79768">
        <ele>601.44006347656</ele>
        <time>2020-06-06T11:42:52Z</time>
      </trkpt>
      <trkpt lat="43.54417" lon="2.79776">
        <ele>606.56872558594</ele>
        <time>2020-06-06T11:43:07Z</time>
      </trkpt>
      <trkpt lat="43.54426" lon="2.79802">
        <ele>605.8642578125</ele>
        <time>2020-06-06T11:47:39Z</time>
      </trkpt>
      <trkpt lat="43.54428" lon="2.79816">
        <ele>606.81030273438</ele>
        <time>2020-06-06T11:47:49Z</time>
      </trkpt>
      <trkpt lat="43.54426" lon="2.79829">
        <ele>626.3828125</ele>
        <time>2020-06-06T11:48:41Z</time>
      </trkpt>
      <trkpt lat="43.54423" lon="2.79841">
        <ele>633.87963867188</ele>
        <time>2020-06-06T11:52:59Z</time>
      </trkpt>
      <trkpt lat="43.54413" lon="2.79854">
        <ele>634.80029296875</ele>
        <time>2020-06-06T11:56:36Z</time>
      </trkpt>
      <trkpt lat="43.54415" lon="2.79867">
        <ele>642.10461425781</ele>
        <time>2020-06-06T12:05:22Z</time>
      </trkpt>
      <trkpt lat="43.54419" lon="2.79878">
        <ele>645.60571289062</ele>
        <time>2020-06-06T12:05:30Z</time>
      </trkpt>
      <trkpt lat="43.54419" lon="2.79893">
        <ele>644.68237304688</ele>
        <time>2020-06-06T12:05:38Z</time>
      </trkpt>
      <trkpt lat="43.54424" lon="2.79907">
        <ele>639.19055175781</ele>
        <time>2020-06-06T12:05:49Z</time>
      </trkpt>
      <trkpt lat="43.54435" lon="2.79917">
        <ele>634.43664550781</ele>
        <time>2020-06-06T12:06:38Z</time>
      </trkpt>
      <trkpt lat="43.54437" lon="2.79931">
        <ele>633.46337890625</ele>
        <time>2020-06-06T12:06:46Z</time>
      </trkpt>
      <trkpt lat="43.54439" lon="2.79946">
        <ele>631.81127929688</ele>
        <time>2020-06-06T12:06:52Z</time>
      </trkpt>
      <trkpt lat="43.54442" lon="2.79961">
        <ele>630.5498046875</ele>
        <time>2020-06-06T12:06:57Z</time>
      </trkpt>
      <trkpt lat="43.54444" lon="2.79974">
        <ele>630.49780273438</ele>
        <time>2020-06-06T12:07:02Z</time>
      </trkpt>
      <trkpt lat="43.54445" lon="2.79988">
        <ele>634.2333984375</ele>
        <time>2020-06-06T12:07:11Z</time>
      </trkpt>
      <trkpt lat="43.54448" lon="2.80003">
        <ele>633.29943847656</ele>
        <time>2020-06-06T12:07:16Z</time>
      </trkpt>
      <trkpt lat="43.5445" lon="2.80018">
        <ele>625.84301757812</ele>
        <time>2020-06-06T12:07:23Z</time>
      </trkpt>
      <trkpt lat="43.54449" lon="2.80031">
        <ele>624.95703125</ele>
        <time>2020-06-06T12:07:34Z</time>
      </trkpt>
      <trkpt lat="43.54449" lon="2.80045">
        <ele>625.62866210938</ele>
        <time>2020-06-06T12:07:41Z</time>
      </trkpt>
      <trkpt lat="43.54448" lon="2.80059">
        <ele>621.24096679688</ele>
        <time>2020-06-06T12:07:47Z</time>
      </trkpt>
      <trkpt lat="43.54446" lon="2.80072">
        <ele>623.93225097656</ele>
        <time>2020-06-06T12:07:57Z</time>
      </trkpt>
      <trkpt lat="43.54439" lon="2.80083">
        <ele>628.45263671875</ele>
        <time>2020-06-06T12:08:05Z</time>
      </trkpt>
      <trkpt lat="43.54437" lon="2.80096">
        <ele>628.03076171875</ele>
        <time>2020-06-06T12:08:16Z</time>
      </trkpt>
      <trkpt lat="43.54433" lon="2.80108">
        <ele>627.69580078125</ele>
        <time>2020-06-06T12:08:25Z</time>
      </trkpt>
      <trkpt lat="43.54428" lon="2.80121">
        <ele>628.5888671875</ele>
        <time>2020-06-06T12:08:48Z</time>
      </trkpt>
      <trkpt lat="43.54425" lon="2.80134">
        <ele>627.28662109375</ele>
        <time>2020-06-06T12:08:54Z</time>
      </trkpt>
      <trkpt lat="43.5442" lon="2.80145">
        <ele>628.52221679688</ele>
        <time>2020-06-06T12:09:01Z</time>
      </trkpt>
      <trkpt lat="43.54419" lon="2.80159">
        <ele>631.787109375</ele>
        <time>2020-06-06T12:09:09Z</time>
      </trkpt>
      <trkpt lat="43.54421" lon="2.80172">
        <ele>628.91857910156</ele>
        <time>2020-06-06T12:09:16Z</time>
      </trkpt>
      <trkpt lat="43.54421" lon="2.80185">
        <ele>621.89892578125</ele>
        <time>2020-06-06T12:09:26Z</time>
      </trkpt>
      <trkpt lat="43.54414" lon="2.80195">
        <ele>618.873046875</ele>
        <time>2020-06-06T12:09:35Z</time>
      </trkpt>
      <trkpt lat="43.54408" lon="2.80206">
        <ele>618.05053710938</ele>
        <time>2020-06-06T12:09:44Z</time>
      </trkpt>
      <trkpt lat="43.54401" lon="2.80221">
        <ele>623.91284179688</ele>
        <time>2020-06-06T12:09:57Z</time>
      </trkpt>
      <trkpt lat="43.54393" lon="2.80236">
        <ele>616.521484375</ele>
        <time>2020-06-06T12:10:09Z</time>
      </trkpt>
      <trkpt lat="43.54389" lon="2.80248">
        <ele>614.30737304688</ele>
        <time>2020-06-06T12:10:18Z</time>
      </trkpt>
      <trkpt lat="43.54386" lon="2.80263">
        <ele>616.447265625</ele>
        <time>2020-06-06T12:10:24Z</time>
      </trkpt>
      <trkpt lat="43.54381" lon="2.80276">
        <ele>617.13256835938</ele>
        <time>2020-06-06T12:10:31Z</time>
      </trkpt>
      <trkpt lat="43.54376" lon="2.80287">
        <ele>619.60522460938</ele>
        <time>2020-06-06T12:11:06Z</time>
      </trkpt>
      <trkpt lat="43.54375" lon="2.80302">
        <ele>616.07690429688</ele>
        <time>2020-06-06T12:11:13Z</time>
      </trkpt>
      <trkpt lat="43.54374" lon="2.80316">
        <ele>614.81860351562</ele>
        <time>2020-06-06T12:11:22Z</time>
      </trkpt>
      <trkpt lat="43.54365" lon="2.80327">
        <ele>613.03381347656</ele>
        <time>2020-06-06T12:11:29Z</time>
      </trkpt>
      <trkpt lat="43.54363" lon="2.80341">
        <ele>614.84985351562</ele>
        <time>2020-06-06T12:11:34Z</time>
      </trkpt>
      <trkpt lat="43.54365" lon="2.80355">
        <ele>610.39562988281</ele>
        <time>2020-06-06T12:11:40Z</time>
      </trkpt>
      <trkpt lat="43.54366" lon="2.8037">
        <ele>614.56616210938</ele>
        <time>2020-06-06T12:11:54Z</time>
      </trkpt>
      <trkpt lat="43.54364" lon="2.80383">
        <ele>614.93481445312</ele>
        <time>2020-06-06T12:12:02Z</time>
      </trkpt>
      <trkpt lat="43.54369" lon="2.80394">
        <ele>621.36572265625</ele>
        <time>2020-06-06T12:12:32Z</time>
      </trkpt>
      <trkpt lat="43.54367" lon="2.80408">
        <ele>623.78051757812</ele>
        <time>2020-06-06T12:12:41Z</time>
      </trkpt>
      <trkpt lat="43.54367" lon="2.80421">
        <ele>628.22875976562</ele>
        <time>2020-06-06T12:12:50Z</time>
      </trkpt>
      <trkpt lat="43.54367" lon="2.80434">
        <ele>623.55676269531</ele>
        <time>2020-06-06T12:12:57Z</time>
      </trkpt>
      <trkpt lat="43.54368" lon="2.80447">
        <ele>627.14001464844</ele>
        <time>2020-06-06T12:13:07Z</time>
      </trkpt>
      <trkpt lat="43.54359" lon="2.80453">
        <ele>626.0693359375</ele>
        <time>2020-06-06T12:13:19Z</time>
      </trkpt>
      <trkpt lat="43.54355" lon="2.80464">
        <ele>620.60375976562</ele>
        <time>2020-06-06T12:13:34Z</time>
      </trkpt>
      <trkpt lat="43.54356" lon="2.80477">
        <ele>615.22082519531</ele>
        <time>2020-06-06T12:13:42Z</time>
      </trkpt>
      <trkpt lat="43.54352" lon="2.80491">
        <ele>617.46520996094</ele>
        <time>2020-06-06T12:13:52Z</time>
      </trkpt>
      <trkpt lat="43.54346" lon="2.80502">
        <ele>617.619140625</ele>
        <time>2020-06-06T12:14:03Z</time>
      </trkpt>
      <trkpt lat="43.54343" lon="2.80518">
        <ele>618.40209960938</ele>
        <time>2020-06-06T12:14:14Z</time>
      </trkpt>
      <trkpt lat="43.54341" lon="2.80532">
        <ele>612.56616210938</ele>
        <time>2020-06-06T12:14:25Z</time>
      </trkpt>
      <trkpt lat="43.54335" lon="2.80546">
        <ele>615.46240234375</ele>
        <time>2020-06-06T12:14:35Z</time>
      </trkpt>
      <trkpt lat="43.54328" lon="2.80557">
        <ele>616.84448242188</ele>
        <time>2020-06-06T12:14:45Z</time>
      </trkpt>
      <trkpt lat="43.54323" lon="2.80568">
        <ele>618.080078125</ele>
        <time>2020-06-06T12:14:50Z</time>
      </trkpt>
      <trkpt lat="43.54317" lon="2.80578">
        <ele>616.23266601562</ele>
        <time>2020-06-06T12:14:58Z</time>
      </trkpt>
      <trkpt lat="43.54308" lon="2.80586">
        <ele>613.85046386719</ele>
        <time>2020-06-06T12:15:11Z</time>
      </trkpt>
      <trkpt lat="43.54309" lon="2.806">
        <ele>611.5048828125</ele>
        <time>2020-06-06T12:15:16Z</time>
      </trkpt>
      <trkpt lat="43.54309" lon="2.80614">
        <ele>612.88427734375</ele>
        <time>2020-06-06T12:15:25Z</time>
      </trkpt>
      <trkpt lat="43.54303" lon="2.80626">
        <ele>616.16174316406</ele>
        <time>2020-06-06T12:15:34Z</time>
      </trkpt>
      <trkpt lat="43.54298" lon="2.80638">
        <ele>615.81689453125</ele>
        <time>2020-06-06T12:15:41Z</time>
      </trkpt>
      <trkpt lat="43.54298" lon="2.80651">
        <ele>614.85241699219</ele>
        <time>2020-06-06T12:15:50Z</time>
      </trkpt>
      <trkpt lat="43.54289" lon="2.80656">
        <ele>614.01989746094</ele>
        <time>2020-06-06T12:16:01Z</time>
      </trkpt>
      <trkpt lat="43.54284" lon="2.8067">
        <ele>608.79895019531</ele>
        <time>2020-06-06T12:16:11Z</time>
      </trkpt>
      <trkpt lat="43.54282" lon="2.80685">
        <ele>607.80590820312</ele>
        <time>2020-06-06T12:16:17Z</time>
      </trkpt>
      <trkpt lat="43.54276" lon="2.80695">
        <ele>610.94140625</ele>
        <time>2020-06-06T12:16:23Z</time>
      </trkpt>
      <trkpt lat="43.5427" lon="2.80706">
        <ele>611.28112792969</ele>
        <time>2020-06-06T12:16:32Z</time>
      </trkpt>
      <trkpt lat="43.5426" lon="2.80719">
        <ele>612.25024414062</ele>
        <time>2020-06-06T12:16:46Z</time>
      </trkpt>
      <trkpt lat="43.54256" lon="2.80732">
        <ele>608.99780273438</ele>
        <time>2020-06-06T12:16:59Z</time>
      </trkpt>
      <trkpt lat="43.5426" lon="2.80747">
        <ele>608.86840820312</ele>
        <time>2020-06-06T12:17:05Z</time>
      </trkpt>
      <trkpt lat="43.54253" lon="2.80758">
        <ele>610.13806152344</ele>
        <time>2020-06-06T12:17:14Z</time>
      </trkpt>
      <trkpt lat="43.54249" lon="2.80769">
        <ele>607.7783203125</ele>
        <time>2020-06-06T12:17:24Z</time>
      </trkpt>
      <trkpt lat="43.54246" lon="2.80782">
        <ele>603.1357421875</ele>
        <time>2020-06-06T12:17:32Z</time>
      </trkpt>
      <trkpt lat="43.54247" lon="2.80796">
        <ele>604.13366699219</ele>
        <time>2020-06-06T12:17:40Z</time>
      </trkpt>
      <trkpt lat="43.54244" lon="2.80809">
        <ele>607.11401367188</ele>
        <time>2020-06-06T12:17:47Z</time>
      </trkpt>
      <trkpt lat="43.5424" lon="2.80821">
        <ele>607.14855957031</ele>
        <time>2020-06-06T12:17:54Z</time>
      </trkpt>
      <trkpt lat="43.54242" lon="2.80834">
        <ele>607.42504882812</ele>
        <time>2020-06-06T12:18:03Z</time>
      </trkpt>
      <trkpt lat="43.54255" lon="2.80839">
        <ele>607.09545898438</ele>
        <time>2020-06-06T12:18:25Z</time>
      </trkpt>
      <trkpt lat="43.54265" lon="2.80836">
        <ele>605.0517578125</ele>
        <time>2020-06-06T12:18:35Z</time>
      </trkpt>
      <trkpt lat="43.54276" lon="2.80832">
        <ele>605.89196777344</ele>
        <time>2020-06-06T12:18:43Z</time>
      </trkpt>
      <trkpt lat="43.54285" lon="2.8083">
        <ele>603.58471679688</ele>
        <time>2020-06-06T12:18:52Z</time>
      </trkpt>
      <trkpt lat="43.54294" lon="2.80821">
        <ele>604.025390625</ele>
        <time>2020-06-06T12:19:03Z</time>
      </trkpt>
      <trkpt lat="43.54305" lon="2.80817">
        <ele>606.318359375</ele>
        <time>2020-06-06T12:19:10Z</time>
      </trkpt>
      <trkpt lat="43.54313" lon="2.80811">
        <ele>605.65454101562</ele>
        <time>2020-06-06T12:19:16Z</time>
      </trkpt>
      <trkpt lat="43.54323" lon="2.80809">
        <ele>606.70068359375</ele>
        <time>2020-06-06T12:19:26Z</time>
      </trkpt>
      <trkpt lat="43.54332" lon="2.80807">
        <ele>608.67822265625</ele>
        <time>2020-06-06T12:19:43Z</time>
      </trkpt>
      <trkpt lat="43.54342" lon="2.80807">
        <ele>611.38012695312</ele>
        <time>2020-06-06T12:19:50Z</time>
      </trkpt>
      <trkpt lat="43.54352" lon="2.80806">
        <ele>611.29431152344</ele>
        <time>2020-06-06T12:19:57Z</time>
      </trkpt>
      <trkpt lat="43.54362" lon="2.80801">
        <ele>610.11657714844</ele>
        <time>2020-06-06T12:20:09Z</time>
      </trkpt>
      <trkpt lat="43.54371" lon="2.80799">
        <ele>606.95153808594</ele>
        <time>2020-06-06T12:20:23Z</time>
      </trkpt>
      <trkpt lat="43.54381" lon="2.808">
        <ele>607.98791503906</ele>
        <time>2020-06-06T12:20:32Z</time>
      </trkpt>
      <trkpt lat="43.54392" lon="2.80802">
        <ele>610.7822265625</ele>
        <time>2020-06-06T12:20:40Z</time>
      </trkpt>
      <trkpt lat="43.54401" lon="2.80803">
        <ele>611.82006835938</ele>
        <time>2020-06-06T12:20:48Z</time>
      </trkpt>
      <trkpt lat="43.54411" lon="2.80801">
        <ele>612.4580078125</ele>
        <time>2020-06-06T12:21:03Z</time>
      </trkpt>
      <trkpt lat="43.5442" lon="2.80805">
        <ele>606.48828125</ele>
        <time>2020-06-06T12:21:14Z</time>
      </trkpt>
      <trkpt lat="43.54432" lon="2.8081">
        <ele>603.130859375</ele>
        <time>2020-06-06T12:21:19Z</time>
      </trkpt>
      <trkpt lat="43.54439" lon="2.80819">
        <ele>600.1904296875</ele>
        <time>2020-06-06T12:21:26Z</time>
      </trkpt>
      <trkpt lat="43.5444" lon="2.80831">
        <ele>598.19201660156</ele>
        <time>2020-06-06T12:21:35Z</time>
      </trkpt>
      <trkpt lat="43.54436" lon="2.80844">
        <ele>595.63940429688</ele>
        <time>2020-06-06T12:21:48Z</time>
      </trkpt>
      <trkpt lat="43.54436" lon="2.80858">
        <ele>594.66284179688</ele>
        <time>2020-06-06T12:21:57Z</time>
      </trkpt>
      <trkpt lat="43.54437" lon="2.80872">
        <ele>597.08764648438</ele>
        <time>2020-06-06T12:22:06Z</time>
      </trkpt>
      <trkpt lat="43.5444" lon="2.80886">
        <ele>594.43103027344</ele>
        <time>2020-06-06T12:22:15Z</time>
      </trkpt>
      <trkpt lat="43.54438" lon="2.80898">
        <ele>595.21484375</ele>
        <time>2020-06-06T12:22:28Z</time>
      </trkpt>
      <trkpt lat="43.54433" lon="2.80912">
        <ele>593.0576171875</ele>
        <time>2020-06-06T12:22:36Z</time>
      </trkpt>
      <trkpt lat="43.54433" lon="2.80924">
        <ele>592.45031738281</ele>
        <time>2020-06-06T12:22:45Z</time>
      </trkpt>
      <trkpt lat="43.54423" lon="2.80927">
        <ele>588.33666992188</ele>
        <time>2020-06-06T12:22:52Z</time>
      </trkpt>
      <trkpt lat="43.54418" lon="2.80938">
        <ele>588.42822265625</ele>
        <time>2020-06-06T12:23:01Z</time>
      </trkpt>
      <trkpt lat="43.54412" lon="2.80947">
        <ele>587.16821289062</ele>
        <time>2020-06-06T12:23:11Z</time>
      </trkpt>
      <trkpt lat="43.54407" lon="2.80958">
        <ele>587.51196289062</ele>
        <time>2020-06-06T12:23:19Z</time>
      </trkpt>
      <trkpt lat="43.54405" lon="2.80971">
        <ele>578.9072265625</ele>
        <time>2020-06-06T12:23:31Z</time>
      </trkpt>
      <trkpt lat="43.54403" lon="2.80985">
        <ele>576.26831054688</ele>
        <time>2020-06-06T12:23:45Z</time>
      </trkpt>
      <trkpt lat="43.54401" lon="2.80998">
        <ele>574.62890625</ele>
        <time>2020-06-06T12:23:52Z</time>
      </trkpt>
      <trkpt lat="43.54399" lon="2.81011">
        <ele>577.11181640625</ele>
        <time>2020-06-06T12:24:00Z</time>
      </trkpt>
      <trkpt lat="43.54395" lon="2.81025">
        <ele>575.13305664062</ele>
        <time>2020-06-06T12:24:09Z</time>
      </trkpt>
      <trkpt lat="43.54388" lon="2.81042">
        <ele>575.18481445312</ele>
        <time>2020-06-06T12:24:24Z</time>
      </trkpt>
      <trkpt lat="43.54382" lon="2.81053">
        <ele>578.4453125</ele>
        <time>2020-06-06T12:24:32Z</time>
      </trkpt>
      <trkpt lat="43.54375" lon="2.81062">
        <ele>574.13134765625</ele>
        <time>2020-06-06T12:24:55Z</time>
      </trkpt>
      <trkpt lat="43.54368" lon="2.81075">
        <ele>575.47094726562</ele>
        <time>2020-06-06T12:25:03Z</time>
      </trkpt>
      <trkpt lat="43.54362" lon="2.81087">
        <ele>574.46264648438</ele>
        <time>2020-06-06T12:25:11Z</time>
      </trkpt>
      <trkpt lat="43.54358" lon="2.811">
        <ele>570.69543457031</ele>
        <time>2020-06-06T12:25:24Z</time>
      </trkpt>
      <trkpt lat="43.5435" lon="2.81109">
        <ele>567.58618164062</ele>
        <time>2020-06-06T12:25:33Z</time>
      </trkpt>
      <trkpt lat="43.54345" lon="2.8112">
        <ele>565.70263671875</ele>
        <time>2020-06-06T12:25:44Z</time>
      </trkpt>
      <trkpt lat="43.54338" lon="2.81131">
        <ele>564.47741699219</ele>
        <time>2020-06-06T12:25:52Z</time>
      </trkpt>
      <trkpt lat="43.54329" lon="2.81139">
        <ele>564.65661621094</ele>
        <time>2020-06-06T12:26:02Z</time>
      </trkpt>
      <trkpt lat="43.54319" lon="2.81141">
        <ele>563.13049316406</ele>
        <time>2020-06-06T12:26:11Z</time>
      </trkpt>
      <trkpt lat="43.5431" lon="2.81142">
        <ele>561.11010742188</ele>
        <time>2020-06-06T12:26:22Z</time>
      </trkpt>
      <trkpt lat="43.54301" lon="2.81148">
        <ele>559.41455078125</ele>
        <time>2020-06-06T12:26:33Z</time>
      </trkpt>
      <trkpt lat="43.54302" lon="2.81165">
        <ele>550.42016601562</ele>
        <time>2020-06-06T12:26:48Z</time>
      </trkpt>
      <trkpt lat="43.54302" lon="2.81178">
        <ele>550.71411132812</ele>
        <time>2020-06-06T12:26:56Z</time>
      </trkpt>
      <trkpt lat="43.54299" lon="2.81191">
        <ele>550.78979492188</ele>
        <time>2020-06-06T12:27:08Z</time>
      </trkpt>
      <trkpt lat="43.54302" lon="2.81204">
        <ele>542.77490234375</ele>
        <time>2020-06-06T12:27:14Z</time>
      </trkpt>
      <trkpt lat="43.54301" lon="2.81219">
        <ele>543.13061523438</ele>
        <time>2020-06-06T12:27:22Z</time>
      </trkpt>
      <trkpt lat="43.543" lon="2.81233">
        <ele>544.52868652344</ele>
        <time>2020-06-06T12:27:29Z</time>
      </trkpt>
      <trkpt lat="43.54299" lon="2.81245">
        <ele>545.38818359375</ele>
        <time>2020-06-06T12:27:36Z</time>
      </trkpt>
      <trkpt lat="43.54295" lon="2.81257">
        <ele>548.2529296875</ele>
        <time>2020-06-06T12:27:43Z</time>
      </trkpt>
      <trkpt lat="43.54289" lon="2.81268">
        <ele>551.70874023438</ele>
        <time>2020-06-06T12:27:53Z</time>
      </trkpt>
      <trkpt lat="43.54285" lon="2.81283">
        <ele>552.12243652344</ele>
        <time>2020-06-06T12:28:00Z</time>
      </trkpt>
      <trkpt lat="43.54281" lon="2.81295">
        <ele>558.76098632812</ele>
        <time>2020-06-06T12:28:10Z</time>
      </trkpt>
      <trkpt lat="43.54277" lon="2.81309">
        <ele>560.26501464844</ele>
        <time>2020-06-06T12:28:22Z</time>
      </trkpt>
      <trkpt lat="43.54277" lon="2.81323">
        <ele>560.31616210938</ele>
        <time>2020-06-06T12:28:30Z</time>
      </trkpt>
      <trkpt lat="43.54278" lon="2.81337">
        <ele>556.84826660156</ele>
        <time>2020-06-06T12:28:41Z</time>
      </trkpt>
      <trkpt lat="43.54279" lon="2.81351">
        <ele>552.40002441406</ele>
        <time>2020-06-06T12:28:50Z</time>
      </trkpt>
      <trkpt lat="43.54278" lon="2.81364">
        <ele>553.1494140625</ele>
        <time>2020-06-06T12:29:02Z</time>
      </trkpt>
      <trkpt lat="43.54278" lon="2.81378">
        <ele>546.71752929688</ele>
        <time>2020-06-06T12:29:33Z</time>
      </trkpt>
      <trkpt lat="43.54278" lon="2.81394">
        <ele>548.39672851562</ele>
        <time>2020-06-06T12:29:41Z</time>
      </trkpt>
      <trkpt lat="43.5428" lon="2.81406">
        <ele>548.39794921875</ele>
        <time>2020-06-06T12:29:50Z</time>
      </trkpt>
      <trkpt lat="43.54281" lon="2.81421">
        <ele>547.63757324219</ele>
        <time>2020-06-06T12:30:01Z</time>
      </trkpt>
      <trkpt lat="43.54283" lon="2.81435">
        <ele>543.67016601562</ele>
        <time>2020-06-06T12:30:12Z</time>
      </trkpt>
      <trkpt lat="43.54285" lon="2.81448">
        <ele>541.67309570312</ele>
        <time>2020-06-06T12:30:24Z</time>
      </trkpt>
      <trkpt lat="43.54287" lon="2.8146">
        <ele>539.74633789062</ele>
        <time>2020-06-06T12:30:36Z</time>
      </trkpt>
      <trkpt lat="43.5429" lon="2.81474">
        <ele>544.07531738281</ele>
        <time>2020-06-06T12:30:43Z</time>
      </trkpt>
      <trkpt lat="43.54293" lon="2.81488">
        <ele>544.43872070312</ele>
        <time>2020-06-06T12:30:52Z</time>
      </trkpt>
      <trkpt lat="43.54297" lon="2.815">
        <ele>541.9375</ele>
        <time>2020-06-06T12:31:01Z</time>
      </trkpt>
      <trkpt lat="43.54301" lon="2.81513">
        <ele>538.48681640625</ele>
        <time>2020-06-06T12:31:10Z</time>
      </trkpt>
      <trkpt lat="43.54306" lon="2.81524">
        <ele>535.41967773438</ele>
        <time>2020-06-06T12:31:20Z</time>
      </trkpt>
      <trkpt lat="43.5431" lon="2.81536">
        <ele>538.39794921875</ele>
        <time>2020-06-06T12:31:33Z</time>
      </trkpt>
      <trkpt lat="43.54317" lon="2.81544">
        <ele>535.02514648438</ele>
        <time>2020-06-06T12:31:44Z</time>
      </trkpt>
      <trkpt lat="43.54324" lon="2.81555">
        <ele>534.10107421875</ele>
        <time>2020-06-06T12:31:53Z</time>
      </trkpt>
      <trkpt lat="43.54329" lon="2.81566">
        <ele>534.91613769531</ele>
        <time>2020-06-06T12:32:03Z</time>
      </trkpt>
      <trkpt lat="43.54333" lon="2.81578">
        <ele>529.1640625</ele>
        <time>2020-06-06T12:32:15Z</time>
      </trkpt>
      <trkpt lat="43.5434" lon="2.81588">
        <ele>526.79248046875</ele>
        <time>2020-06-06T12:32:23Z</time>
      </trkpt>
      <trkpt lat="43.54348" lon="2.81595">
        <ele>528.64697265625</ele>
        <time>2020-06-06T12:32:32Z</time>
      </trkpt>
      <trkpt lat="43.54356" lon="2.81605">
        <ele>524.14990234375</ele>
        <time>2020-06-06T12:32:40Z</time>
      </trkpt>
      <trkpt lat="43.5436" lon="2.81616">
        <ele>526.66442871094</ele>
        <time>2020-06-06T12:32:57Z</time>
      </trkpt>
      <trkpt lat="43.54369" lon="2.81624">
        <ele>528.05444335938</ele>
        <time>2020-06-06T12:33:04Z</time>
      </trkpt>
      <trkpt lat="43.54375" lon="2.81636">
        <ele>529.03930664062</ele>
        <time>2020-06-06T12:33:12Z</time>
      </trkpt>
      <trkpt lat="43.54372" lon="2.81647">
        <ele>518.7119140625</ele>
        <time>2020-06-06T12:33:26Z</time>
      </trkpt>
      <trkpt lat="43.54362" lon="2.8165">
        <ele>521.68908691406</ele>
        <time>2020-06-06T12:33:37Z</time>
      </trkpt>
      <trkpt lat="43.54353" lon="2.81652">
        <ele>523.76586914062</ele>
        <time>2020-06-06T12:33:44Z</time>
      </trkpt>
      <trkpt lat="43.54343" lon="2.81654">
        <ele>525.4443359375</ele>
        <time>2020-06-06T12:33:51Z</time>
      </trkpt>
      <trkpt lat="43.54334" lon="2.81649">
        <ele>526.10083007812</ele>
        <time>2020-06-06T12:34:00Z</time>
      </trkpt>
      <trkpt lat="43.54326" lon="2.8164">
        <ele>531.89294433594</ele>
        <time>2020-06-06T12:34:08Z</time>
      </trkpt>
      <trkpt lat="43.54317" lon="2.81633">
        <ele>531.1962890625</ele>
        <time>2020-06-06T12:34:16Z</time>
      </trkpt>
      <trkpt lat="43.5431" lon="2.81623">
        <ele>529.82641601562</ele>
        <time>2020-06-06T12:34:27Z</time>
      </trkpt>
      <trkpt lat="43.54301" lon="2.81618">
        <ele>525.96508789062</ele>
        <time>2020-06-06T12:34:38Z</time>
      </trkpt>
      <trkpt lat="43.54291" lon="2.81612">
        <ele>525.84582519531</ele>
        <time>2020-06-06T12:34:48Z</time>
      </trkpt>
      <trkpt lat="43.54283" lon="2.81605">
        <ele>521.98681640625</ele>
        <time>2020-06-06T12:34:58Z</time>
      </trkpt>
      <trkpt lat="43.54276" lon="2.81595">
        <ele>523.79663085938</ele>
        <time>2020-06-06T12:35:06Z</time>
      </trkpt>
      <trkpt lat="43.54267" lon="2.81587">
        <ele>523.23168945312</ele>
        <time>2020-06-06T12:35:14Z</time>
      </trkpt>
      <trkpt lat="43.54258" lon="2.81584">
        <ele>521.82629394531</ele>
        <time>2020-06-06T12:35:25Z</time>
      </trkpt>
      <trkpt lat="43.54252" lon="2.81572">
        <ele>516.32861328125</ele>
        <time>2020-06-06T12:35:36Z</time>
      </trkpt>
      <trkpt lat="43.54244" lon="2.81563">
        <ele>517.654296875</ele>
        <time>2020-06-06T12:35:45Z</time>
      </trkpt>
      <trkpt lat="43.54237" lon="2.81556">
        <ele>514.61633300781</ele>
        <time>2020-06-06T12:35:53Z</time>
      </trkpt>
      <trkpt lat="43.54228" lon="2.81548">
        <ele>511.32690429688</ele>
        <time>2020-06-06T12:36:05Z</time>
      </trkpt>
      <trkpt lat="43.54219" lon="2.81542">
        <ele>511.95654296875</ele>
        <time>2020-06-06T12:36:18Z</time>
      </trkpt>
      <trkpt lat="43.54211" lon="2.81534">
        <ele>510.1572265625</ele>
        <time>2020-06-06T12:36:28Z</time>
      </trkpt>
      <trkpt lat="43.54204" lon="2.81526">
        <ele>510.54516601562</ele>
        <time>2020-06-06T12:36:36Z</time>
      </trkpt>
      <trkpt lat="43.54196" lon="2.81519">
        <ele>512.86157226562</ele>
        <time>2020-06-06T12:36:43Z</time>
      </trkpt>
      <trkpt lat="43.54187" lon="2.81517">
        <ele>517.37194824219</ele>
        <time>2020-06-06T12:36:52Z</time>
      </trkpt>
      <trkpt lat="43.54176" lon="2.81515">
        <ele>514.7099609375</ele>
        <time>2020-06-06T12:37:01Z</time>
      </trkpt>
      <trkpt lat="43.54165" lon="2.81513">
        <ele>518.10607910156</ele>
        <time>2020-06-06T12:37:07Z</time>
      </trkpt>
      <trkpt lat="43.54153" lon="2.81512">
        <ele>514.04919433594</ele>
        <time>2020-06-06T12:37:14Z</time>
      </trkpt>
      <trkpt lat="43.54146" lon="2.81503">
        <ele>512.76342773438</ele>
        <time>2020-06-06T12:37:25Z</time>
      </trkpt>
      <trkpt lat="43.54137" lon="2.81495">
        <ele>511.7138671875</ele>
        <time>2020-06-06T12:37:34Z</time>
      </trkpt>
      <trkpt lat="43.54131" lon="2.81485">
        <ele>511.38305664062</ele>
        <time>2020-06-06T12:37:42Z</time>
      </trkpt>
      <trkpt lat="43.54117" lon="2.81483">
        <ele>503.05517578125</ele>
        <time>2020-06-06T12:38:02Z</time>
      </trkpt>
      <trkpt lat="43.54109" lon="2.8149">
        <ele>502.13818359375</ele>
        <time>2020-06-06T12:38:13Z</time>
      </trkpt>
      <trkpt lat="43.541" lon="2.81492">
        <ele>499.42578125</ele>
        <time>2020-06-06T12:38:22Z</time>
      </trkpt>
      <trkpt lat="43.5409" lon="2.8149">
        <ele>498.669921875</ele>
        <time>2020-06-06T12:38:30Z</time>
      </trkpt>
      <trkpt lat="43.54081" lon="2.81489">
        <ele>496.32470703125</ele>
        <time>2020-06-06T12:38:40Z</time>
      </trkpt>
      <trkpt lat="43.54071" lon="2.81493">
        <ele>493.3330078125</ele>
        <time>2020-06-06T12:38:47Z</time>
      </trkpt>
      <trkpt lat="43.54061" lon="2.81495">
        <ele>495.73315429688</ele>
        <time>2020-06-06T12:38:58Z</time>
      </trkpt>
      <trkpt lat="43.5405" lon="2.81499">
        <ele>495.91186523438</ele>
        <time>2020-06-06T12:39:04Z</time>
      </trkpt>
      <trkpt lat="43.54045" lon="2.81511">
        <ele>496.22131347656</ele>
        <time>2020-06-06T12:39:11Z</time>
      </trkpt>
      <trkpt lat="43.54042" lon="2.81523">
        <ele>494.50854492188</ele>
        <time>2020-06-06T12:39:18Z</time>
      </trkpt>
      <trkpt lat="43.54039" lon="2.81538">
        <ele>496.076171875</ele>
        <time>2020-06-06T12:39:24Z</time>
      </trkpt>
      <trkpt lat="43.54037" lon="2.81552">
        <ele>495.3798828125</ele>
        <time>2020-06-06T12:39:34Z</time>
      </trkpt>
      <trkpt lat="43.54042" lon="2.81564">
        <ele>493.43920898438</ele>
        <time>2020-06-06T12:39:46Z</time>
      </trkpt>
      <trkpt lat="43.54049" lon="2.81574">
        <ele>496.25207519531</ele>
        <time>2020-06-06T12:39:58Z</time>
      </trkpt>
      <trkpt lat="43.54055" lon="2.81585">
        <ele>494.67065429688</ele>
        <time>2020-06-06T12:40:07Z</time>
      </trkpt>
      <trkpt lat="43.54065" lon="2.81599">
        <ele>486.7724609375</ele>
        <time>2020-06-06T12:40:22Z</time>
      </trkpt>
      <trkpt lat="43.54071" lon="2.81612">
        <ele>486.50500488281</ele>
        <time>2020-06-06T12:40:29Z</time>
      </trkpt>
      <trkpt lat="43.5408" lon="2.8162">
        <ele>485.31616210938</ele>
        <time>2020-06-06T12:40:36Z</time>
      </trkpt>
      <trkpt lat="43.54089" lon="2.81625">
        <ele>486.3154296875</ele>
        <time>2020-06-06T12:40:46Z</time>
      </trkpt>
      <trkpt lat="43.54099" lon="2.81631">
        <ele>484.54858398438</ele>
        <time>2020-06-06T12:40:53Z</time>
      </trkpt>
      <trkpt lat="43.54107" lon="2.81638">
        <ele>486.76989746094</ele>
        <time>2020-06-06T12:41:03Z</time>
      </trkpt>
      <trkpt lat="43.54117" lon="2.81646">
        <ele>489.93615722656</ele>
        <time>2020-06-06T12:41:10Z</time>
      </trkpt>
      <trkpt lat="43.54126" lon="2.81651">
        <ele>488.52502441406</ele>
        <time>2020-06-06T12:41:21Z</time>
      </trkpt>
      <trkpt lat="43.54133" lon="2.81661">
        <ele>486.25317382812</ele>
        <time>2020-06-06T12:41:28Z</time>
      </trkpt>
      <trkpt lat="43.54138" lon="2.81674">
        <ele>486.49401855469</ele>
        <time>2020-06-06T12:41:37Z</time>
      </trkpt>
      <trkpt lat="43.54142" lon="2.81686">
        <ele>484.08520507812</ele>
        <time>2020-06-06T12:41:47Z</time>
      </trkpt>
      <trkpt lat="43.54146" lon="2.81698">
        <ele>481.86938476562</ele>
        <time>2020-06-06T12:41:58Z</time>
      </trkpt>
      <trkpt lat="43.54153" lon="2.81707">
        <ele>479.00280761719</ele>
        <time>2020-06-06T12:42:07Z</time>
      </trkpt>
      <trkpt lat="43.54162" lon="2.81702">
        <ele>481.13537597656</ele>
        <time>2020-06-06T12:42:32Z</time>
      </trkpt>
      <trkpt lat="43.54174" lon="2.817">
        <ele>480.83422851562</ele>
        <time>2020-06-06T12:42:38Z</time>
      </trkpt>
      <trkpt lat="43.54185" lon="2.81695">
        <ele>486.99243164062</ele>
        <time>2020-06-06T12:42:46Z</time>
      </trkpt>
      <trkpt lat="43.54195" lon="2.81693">
        <ele>488.32067871094</ele>
        <time>2020-06-06T12:42:53Z</time>
      </trkpt>
      <trkpt lat="43.54206" lon="2.81693">
        <ele>488.78076171875</ele>
        <time>2020-06-06T12:43:02Z</time>
      </trkpt>
      <trkpt lat="43.54215" lon="2.81695">
        <ele>488.8759765625</ele>
        <time>2020-06-06T12:43:15Z</time>
      </trkpt>
      <trkpt lat="43.54225" lon="2.81697">
        <ele>488.28308105469</ele>
        <time>2020-06-06T12:43:25Z</time>
      </trkpt>
      <trkpt lat="43.54234" lon="2.81704">
        <ele>485.6572265625</ele>
        <time>2020-06-06T12:43:33Z</time>
      </trkpt>
      <trkpt lat="43.54245" lon="2.81708">
        <ele>486.72900390625</ele>
        <time>2020-06-06T12:43:42Z</time>
      </trkpt>
      <trkpt lat="43.54254" lon="2.81715">
        <ele>489.37426757812</ele>
        <time>2020-06-06T12:43:50Z</time>
      </trkpt>
      <trkpt lat="43.54264" lon="2.81719">
        <ele>489.11303710938</ele>
        <time>2020-06-06T12:44:00Z</time>
      </trkpt>
      <trkpt lat="43.54271" lon="2.81728">
        <ele>491.91931152344</ele>
        <time>2020-06-06T12:44:08Z</time>
      </trkpt>
      <trkpt lat="43.5428" lon="2.81733">
        <ele>488.51977539062</ele>
        <time>2020-06-06T12:44:21Z</time>
      </trkpt>
      <trkpt lat="43.5429" lon="2.81739">
        <ele>490.87182617188</ele>
        <time>2020-06-06T12:44:30Z</time>
      </trkpt>
      <trkpt lat="43.54299" lon="2.81746">
        <ele>490.40014648438</ele>
        <time>2020-06-06T12:44:38Z</time>
      </trkpt>
      <trkpt lat="43.5429" lon="2.81753">
        <ele>483.16064453125</ele>
        <time>2020-06-06T12:44:51Z</time>
      </trkpt>
      <trkpt lat="43.5428" lon="2.8176">
        <ele>482.14135742188</ele>
        <time>2020-06-06T12:44:58Z</time>
      </trkpt>
      <trkpt lat="43.54273" lon="2.81767">
        <ele>482.8330078125</ele>
        <time>2020-06-06T12:45:06Z</time>
      </trkpt>
      <trkpt lat="43.54265" lon="2.81773">
        <ele>483.724609375</ele>
        <time>2020-06-06T12:45:13Z</time>
      </trkpt>
      <trkpt lat="43.54256" lon="2.81782">
        <ele>484.55541992188</ele>
        <time>2020-06-06T12:45:25Z</time>
      </trkpt>
      <trkpt lat="43.54249" lon="2.81791">
        <ele>482.23669433594</ele>
        <time>2020-06-06T12:45:33Z</time>
      </trkpt>
      <trkpt lat="43.54243" lon="2.81804">
        <ele>478.59448242188</ele>
        <time>2020-06-06T12:45:42Z</time>
      </trkpt>
      <trkpt lat="43.54237" lon="2.81815">
        <ele>477.65759277344</ele>
        <time>2020-06-06T12:45:53Z</time>
      </trkpt>
      <trkpt lat="43.54235" lon="2.81829">
        <ele>476.3037109375</ele>
        <time>2020-06-06T12:46:02Z</time>
      </trkpt>
      <trkpt lat="43.54233" lon="2.81842">
        <ele>478.80297851562</ele>
        <time>2020-06-06T12:46:10Z</time>
      </trkpt>
      <trkpt lat="43.54228" lon="2.81853">
        <ele>481.73962402344</ele>
        <time>2020-06-06T12:46:18Z</time>
      </trkpt>
      <trkpt lat="43.54223" lon="2.81868">
        <ele>478.46508789062</ele>
        <time>2020-06-06T12:46:25Z</time>
      </trkpt>
      <trkpt lat="43.54211" lon="2.81868">
        <ele>480.8466796875</ele>
        <time>2020-06-06T12:46:41Z</time>
      </trkpt>
      <trkpt lat="43.542" lon="2.81868">
        <ele>483.30322265625</ele>
        <time>2020-06-06T12:46:47Z</time>
      </trkpt>
      <trkpt lat="43.5419" lon="2.81865">
        <ele>483.7001953125</ele>
        <time>2020-06-06T12:46:56Z</time>
      </trkpt>
      <trkpt lat="43.5418" lon="2.81864">
        <ele>489.34545898438</ele>
        <time>2020-06-06T12:47:03Z</time>
      </trkpt>
      <trkpt lat="43.5417" lon="2.81865">
        <ele>489.24365234375</ele>
        <time>2020-06-06T12:47:12Z</time>
      </trkpt>
      <trkpt lat="43.54161" lon="2.81868">
        <ele>489.80541992188</ele>
        <time>2020-06-06T12:47:23Z</time>
      </trkpt>
      <trkpt lat="43.54151" lon="2.81868">
        <ele>485.03552246094</ele>
        <time>2020-06-06T12:47:31Z</time>
      </trkpt>
      <trkpt lat="43.54141" lon="2.81871">
        <ele>485.64013671875</ele>
        <time>2020-06-06T12:47:42Z</time>
      </trkpt>
      <trkpt lat="43.54131" lon="2.81871">
        <ele>485.44750976562</ele>
        <time>2020-06-06T12:47:52Z</time>
      </trkpt>
      <trkpt lat="43.54121" lon="2.8187">
        <ele>488.4833984375</ele>
        <time>2020-06-06T12:47:59Z</time>
      </trkpt>
      <trkpt lat="43.54111" lon="2.81876">
        <ele>490.15051269531</ele>
        <time>2020-06-06T12:48:08Z</time>
      </trkpt>
      <trkpt lat="43.54102" lon="2.8188">
        <ele>491.36865234375</ele>
        <time>2020-06-06T12:48:17Z</time>
      </trkpt>
      <trkpt lat="43.54092" lon="2.81883">
        <ele>490.361328125</ele>
        <time>2020-06-06T12:48:29Z</time>
      </trkpt>
      <trkpt lat="43.54083" lon="2.81888">
        <ele>491.16333007812</ele>
        <time>2020-06-06T12:48:38Z</time>
      </trkpt>
      <trkpt lat="43.54072" lon="2.81886">
        <ele>492.26513671875</ele>
        <time>2020-06-06T12:48:45Z</time>
      </trkpt>
      <trkpt lat="43.54061" lon="2.81886">
        <ele>491.92443847656</ele>
        <time>2020-06-06T12:48:53Z</time>
      </trkpt>
      <trkpt lat="43.54053" lon="2.81882">
        <ele>490.486328125</ele>
        <time>2020-06-06T12:49:05Z</time>
      </trkpt>
      <trkpt lat="43.54044" lon="2.81889">
        <ele>489.80346679688</ele>
        <time>2020-06-06T12:49:17Z</time>
      </trkpt>
      <trkpt lat="43.54036" lon="2.81898">
        <ele>488.65478515625</ele>
        <time>2020-06-06T12:49:26Z</time>
      </trkpt>
      <trkpt lat="43.54029" lon="2.81909">
        <ele>485.42431640625</ele>
        <time>2020-06-06T12:49:37Z</time>
      </trkpt>
      <trkpt lat="43.54024" lon="2.81922">
        <ele>482.69165039062</ele>
        <time>2020-06-06T12:49:47Z</time>
      </trkpt>
      <trkpt lat="43.54021" lon="2.81934">
        <ele>487.11193847656</ele>
        <time>2020-06-06T12:49:58Z</time>
      </trkpt>
      <trkpt lat="43.54019" lon="2.81947">
        <ele>490.486328125</ele>
        <time>2020-06-06T12:50:18Z</time>
      </trkpt>
      <trkpt lat="43.54022" lon="2.8196">
        <ele>489.79248046875</ele>
        <time>2020-06-06T12:50:27Z</time>
      </trkpt>
      <trkpt lat="43.54023" lon="2.81973">
        <ele>493.69738769531</ele>
        <time>2020-06-06T12:50:35Z</time>
      </trkpt>
      <trkpt lat="43.54024" lon="2.81986">
        <ele>487.6806640625</ele>
        <time>2020-06-06T12:50:45Z</time>
      </trkpt>
      <trkpt lat="43.54026" lon="2.81998">
        <ele>487.67504882812</ele>
        <time>2020-06-06T12:50:56Z</time>
      </trkpt>
      <trkpt lat="43.54029" lon="2.82012">
        <ele>489.51708984375</ele>
        <time>2020-06-06T12:51:04Z</time>
      </trkpt>
      <trkpt lat="43.54032" lon="2.82025">
        <ele>495.41186523438</ele>
        <time>2020-06-06T12:51:11Z</time>
      </trkpt>
      <trkpt lat="43.54036" lon="2.82038">
        <ele>493.01062011719</ele>
        <time>2020-06-06T12:51:18Z</time>
      </trkpt>
      <trkpt lat="43.54036" lon="2.82052">
        <ele>491.59948730469</ele>
        <time>2020-06-06T12:51:29Z</time>
      </trkpt>
      <trkpt lat="43.54036" lon="2.82065">
        <ele>493.15856933594</ele>
        <time>2020-06-06T12:51:37Z</time>
      </trkpt>
      <trkpt lat="43.54041" lon="2.82077">
        <ele>489.84680175781</ele>
        <time>2020-06-06T12:51:47Z</time>
      </trkpt>
      <trkpt lat="43.54045" lon="2.8209">
        <ele>489.73706054688</ele>
        <time>2020-06-06T12:51:58Z</time>
      </trkpt>
      <trkpt lat="43.54044" lon="2.82103">
        <ele>488.78076171875</ele>
        <time>2020-06-06T12:52:08Z</time>
      </trkpt>
      <trkpt lat="43.54047" lon="2.82118">
        <ele>489.94677734375</ele>
        <time>2020-06-06T12:52:17Z</time>
      </trkpt>
      <trkpt lat="43.54046" lon="2.82131">
        <ele>486.75415039062</ele>
        <time>2020-06-06T12:52:28Z</time>
      </trkpt>
      <trkpt lat="43.54046" lon="2.82143">
        <ele>485.46130371094</ele>
        <time>2020-06-06T12:52:36Z</time>
      </trkpt>
      <trkpt lat="43.54047" lon="2.82156">
        <ele>478.60815429688</ele>
        <time>2020-06-06T12:52:46Z</time>
      </trkpt>
      <trkpt lat="43.54048" lon="2.8217">
        <ele>482.44311523438</ele>
        <time>2020-06-06T12:52:55Z</time>
      </trkpt>
      <trkpt lat="43.54045" lon="2.82183">
        <ele>485.13427734375</ele>
        <time>2020-06-06T12:53:03Z</time>
      </trkpt>
      <trkpt lat="43.54041" lon="2.82197">
        <ele>488.13696289062</ele>
        <time>2020-06-06T12:53:10Z</time>
      </trkpt>
      <trkpt lat="43.54037" lon="2.82211">
        <ele>480.46081542969</ele>
        <time>2020-06-06T12:53:22Z</time>
      </trkpt>
      <trkpt lat="43.54034" lon="2.82225">
        <ele>483.00756835938</ele>
        <time>2020-06-06T12:53:31Z</time>
      </trkpt>
      <trkpt lat="43.54031" lon="2.82239">
        <ele>482.92114257812</ele>
        <time>2020-06-06T12:53:40Z</time>
      </trkpt>
      <trkpt lat="43.5403" lon="2.82252">
        <ele>483.06359863281</ele>
        <time>2020-06-06T12:53:49Z</time>
      </trkpt>
      <trkpt lat="43.54029" lon="2.82267">
        <ele>478.56372070312</ele>
        <time>2020-06-06T12:54:04Z</time>
      </trkpt>
      <trkpt lat="43.54026" lon="2.82279">
        <ele>471.95166015625</ele>
        <time>2020-06-06T12:54:14Z</time>
      </trkpt>
      <trkpt lat="43.54025" lon="2.82292">
        <ele>475.29125976562</ele>
        <time>2020-06-06T12:54:26Z</time>
      </trkpt>
      <trkpt lat="43.54021" lon="2.82304">
        <ele>477.63366699219</ele>
        <time>2020-06-06T12:54:32Z</time>
      </trkpt>
      <trkpt lat="43.5402" lon="2.82318">
        <ele>476.55480957031</ele>
        <time>2020-06-06T12:54:41Z</time>
      </trkpt>
      <trkpt lat="43.54013" lon="2.82328">
        <ele>473.71636962891</ele>
        <time>2020-06-06T12:54:50Z</time>
      </trkpt>
      <trkpt lat="43.5401" lon="2.8234">
        <ele>471.66381835938</ele>
        <time>2020-06-06T12:55:00Z</time>
      </trkpt>
      <trkpt lat="43.5401" lon="2.82354">
        <ele>469.94903564453</ele>
        <time>2020-06-06T12:55:09Z</time>
      </trkpt>
      <trkpt lat="43.5401" lon="2.82367">
        <ele>472.69787597656</ele>
        <time>2020-06-06T12:55:16Z</time>
      </trkpt>
      <trkpt lat="43.54012" lon="2.82379">
        <ele>470.82366943359</ele>
        <time>2020-06-06T12:55:24Z</time>
      </trkpt>
      <trkpt lat="43.54008" lon="2.82392">
        <ele>473.07434082031</ele>
        <time>2020-06-06T12:55:32Z</time>
      </trkpt>
      <trkpt lat="43.53999" lon="2.82398">
        <ele>472.25579833984</ele>
        <time>2020-06-06T12:55:43Z</time>
      </trkpt>
      <trkpt lat="43.53991" lon="2.82404">
        <ele>468.49517822266</ele>
        <time>2020-06-06T12:55:53Z</time>
      </trkpt>
      <trkpt lat="43.53982" lon="2.82406">
        <ele>462.96234130859</ele>
        <time>2020-06-06T12:56:06Z</time>
      </trkpt>
      <trkpt lat="43.53978" lon="2.82419">
        <ele>461.8232421875</ele>
        <time>2020-06-06T12:56:19Z</time>
      </trkpt>
      <trkpt lat="43.53973" lon="2.82429">
        <ele>466.95501708984</ele>
        <time>2020-06-06T12:58:14Z</time>
      </trkpt>
      <trkpt lat="43.53977" lon="2.82442">
        <ele>473.05065917969</ele>
        <time>2020-06-06T12:58:27Z</time>
      </trkpt>
      <trkpt lat="43.53981" lon="2.82454">
        <ele>471.01477050781</ele>
        <time>2020-06-06T12:58:51Z</time>
      </trkpt>
      <trkpt lat="43.53984" lon="2.82467">
        <ele>468.62463378906</ele>
        <time>2020-06-06T12:59:01Z</time>
      </trkpt>
      <trkpt lat="43.53987" lon="2.82481">
        <ele>469.62622070312</ele>
        <time>2020-06-06T12:59:10Z</time>
      </trkpt>
      <trkpt lat="43.53989" lon="2.82496">
        <ele>469.85656738281</ele>
        <time>2020-06-06T12:59:24Z</time>
      </trkpt>
      <trkpt lat="43.53987" lon="2.82509">
        <ele>467.6123046875</ele>
        <time>2020-06-06T12:59:31Z</time>
      </trkpt>
      <trkpt lat="43.53985" lon="2.82521">
        <ele>463.50390625</ele>
        <time>2020-06-06T12:59:47Z</time>
      </trkpt>
      <trkpt lat="43.53983" lon="2.82535">
        <ele>461.58020019531</ele>
        <time>2020-06-06T12:59:54Z</time>
      </trkpt>
      <trkpt lat="43.53984" lon="2.82549">
        <ele>458.64514160156</ele>
        <time>2020-06-06T13:00:02Z</time>
      </trkpt>
      <trkpt lat="43.53982" lon="2.82562">
        <ele>461.96862792969</ele>
        <time>2020-06-06T13:00:11Z</time>
      </trkpt>
      <trkpt lat="43.53984" lon="2.82576">
        <ele>458.53735351562</ele>
        <time>2020-06-06T13:00:24Z</time>
      </trkpt>
      <trkpt lat="43.53983" lon="2.82589">
        <ele>456.30139160156</ele>
        <time>2020-06-06T13:00:33Z</time>
      </trkpt>
      <trkpt lat="43.5398" lon="2.82602">
        <ele>453.38336181641</ele>
        <time>2020-06-06T13:00:44Z</time>
      </trkpt>
      <trkpt lat="43.53977" lon="2.82616">
        <ele>456.11462402344</ele>
        <time>2020-06-06T13:00:56Z</time>
      </trkpt>
      <trkpt lat="43.53976" lon="2.82628">
        <ele>450.86486816406</ele>
        <time>2020-06-06T13:01:05Z</time>
      </trkpt>
      <trkpt lat="43.53974" lon="2.8264">
        <ele>451.69909667969</ele>
        <time>2020-06-06T13:01:15Z</time>
      </trkpt>
      <trkpt lat="43.53969" lon="2.82657">
        <ele>438.98822021484</ele>
        <time>2020-06-06T13:01:27Z</time>
      </trkpt>
      <trkpt lat="43.5397" lon="2.82671">
        <ele>436.22698974609</ele>
        <time>2020-06-06T13:01:35Z</time>
      </trkpt>
      <trkpt lat="43.53969" lon="2.82684">
        <ele>433.09582519531</ele>
        <time>2020-06-06T13:01:47Z</time>
      </trkpt>
      <trkpt lat="43.53968" lon="2.82698">
        <ele>435.26531982422</ele>
        <time>2020-06-06T13:02:00Z</time>
      </trkpt>
      <trkpt lat="43.53962" lon="2.82709">
        <ele>429.22888183594</ele>
        <time>2020-06-06T13:02:15Z</time>
      </trkpt>
      <trkpt lat="43.53957" lon="2.82721">
        <ele>423.32269287109</ele>
        <time>2020-06-06T13:02:49Z</time>
      </trkpt>
      <trkpt lat="43.5395" lon="2.82731">
        <ele>416.42810058594</ele>
        <time>2020-06-06T13:03:01Z</time>
      </trkpt>
      <trkpt lat="43.53942" lon="2.82738">
        <ele>418.40692138672</ele>
        <time>2020-06-06T13:03:10Z</time>
      </trkpt>
      <trkpt lat="43.53933" lon="2.82742">
        <ele>414.78063964844</ele>
        <time>2020-06-06T13:03:20Z</time>
      </trkpt>
      <trkpt lat="43.53924" lon="2.82748">
        <ele>409.32244873047</ele>
        <time>2020-06-06T13:03:36Z</time>
      </trkpt>
      <trkpt lat="43.53914" lon="2.82749">
        <ele>408.05059814453</ele>
        <time>2020-06-06T13:03:48Z</time>
      </trkpt>
      <trkpt lat="43.53903" lon="2.82749">
        <ele>404.88861083984</ele>
        <time>2020-06-06T13:03:57Z</time>
      </trkpt>
      <trkpt lat="43.53893" lon="2.82755">
        <ele>399.64447021484</ele>
        <time>2020-06-06T13:04:04Z</time>
      </trkpt>
      <trkpt lat="43.53883" lon="2.82755">
        <ele>393.38818359375</ele>
        <time>2020-06-06T13:04:14Z</time>
      </trkpt>
      <trkpt lat="43.53869" lon="2.82752">
        <ele>383.33441162109</ele>
        <time>2020-06-06T13:04:33Z</time>
      </trkpt>
      <trkpt lat="43.53859" lon="2.82754">
        <ele>383.70190429688</ele>
        <time>2020-06-06T13:04:40Z</time>
      </trkpt>
      <trkpt lat="43.53849" lon="2.82756">
        <ele>393.07434082031</ele>
        <time>2020-06-06T13:04:51Z</time>
      </trkpt>
      <trkpt lat="43.5384" lon="2.8276">
        <ele>394.25720214844</ele>
        <time>2020-06-06T13:05:00Z</time>
      </trkpt>
      <trkpt lat="43.5383" lon="2.82757">
        <ele>391.16418457031</ele>
        <time>2020-06-06T13:05:17Z</time>
      </trkpt>
      <trkpt lat="43.5382" lon="2.82758">
        <ele>390.75158691406</ele>
        <time>2020-06-06T13:05:30Z</time>
      </trkpt>
      <trkpt lat="43.53809" lon="2.82758">
        <ele>393.21575927734</ele>
        <time>2020-06-06T13:05:36Z</time>
      </trkpt>
      <trkpt lat="43.53799" lon="2.8276">
        <ele>387.34069824219</ele>
        <time>2020-06-06T13:05:42Z</time>
      </trkpt>
      <trkpt lat="43.5379" lon="2.82758">
        <ele>377.56628417969</ele>
        <time>2020-06-06T13:05:51Z</time>
      </trkpt>
      <trkpt lat="43.53781" lon="2.82753">
        <ele>380.18225097656</ele>
        <time>2020-06-06T13:06:02Z</time>
      </trkpt>
      <trkpt lat="43.53771" lon="2.82748">
        <ele>375.94348144531</ele>
        <time>2020-06-06T13:06:09Z</time>
      </trkpt>
      <trkpt lat="43.53761" lon="2.82751">
        <ele>373.5185546875</ele>
        <time>2020-06-06T13:06:18Z</time>
      </trkpt>
      <trkpt lat="43.53752" lon="2.82754">
        <ele>377.8779296875</ele>
        <time>2020-06-06T13:06:25Z</time>
      </trkpt>
      <trkpt lat="43.53746" lon="2.82766">
        <ele>378.02770996094</ele>
        <time>2020-06-06T13:06:32Z</time>
      </trkpt>
      <trkpt lat="43.53739" lon="2.82776">
        <ele>373.85211181641</ele>
        <time>2020-06-06T13:06:41Z</time>
      </trkpt>
      <trkpt lat="43.53734" lon="2.82788">
        <ele>373.99877929688</ele>
        <time>2020-06-06T13:06:54Z</time>
      </trkpt>
      <trkpt lat="43.53725" lon="2.82795">
        <ele>376.59124755859</ele>
        <time>2020-06-06T13:07:03Z</time>
      </trkpt>
      <trkpt lat="43.53716" lon="2.82801">
        <ele>372.7021484375</ele>
        <time>2020-06-06T13:07:14Z</time>
      </trkpt>
      <trkpt lat="43.53706" lon="2.82808">
        <ele>374.46618652344</ele>
        <time>2020-06-06T13:07:24Z</time>
      </trkpt>
      <trkpt lat="43.53697" lon="2.82818">
        <ele>377.01062011719</ele>
        <time>2020-06-06T13:07:34Z</time>
      </trkpt>
      <trkpt lat="43.53688" lon="2.82825">
        <ele>376.51428222656</ele>
        <time>2020-06-06T13:07:40Z</time>
      </trkpt>
      <trkpt lat="43.53678" lon="2.82827">
        <ele>377.02972412109</ele>
        <time>2020-06-06T13:07:51Z</time>
      </trkpt>
      <trkpt lat="43.53669" lon="2.82833">
        <ele>378.27844238281</ele>
        <time>2020-06-06T13:08:03Z</time>
      </trkpt>
      <trkpt lat="43.53661" lon="2.82842">
        <ele>374.56384277344</ele>
        <time>2020-06-06T13:08:10Z</time>
      </trkpt>
      <trkpt lat="43.53653" lon="2.8285">
        <ele>374.47619628906</ele>
        <time>2020-06-06T13:08:17Z</time>
      </trkpt>
      <trkpt lat="43.53644" lon="2.82855">
        <ele>373.29064941406</ele>
        <time>2020-06-06T13:08:26Z</time>
      </trkpt>
      <trkpt lat="43.53637" lon="2.82864">
        <ele>376.42199707031</ele>
        <time>2020-06-06T13:08:37Z</time>
      </trkpt>
      <trkpt lat="43.53629" lon="2.82872">
        <ele>373.9443359375</ele>
        <time>2020-06-06T13:08:44Z</time>
      </trkpt>
      <trkpt lat="43.53621" lon="2.82883">
        <ele>371.99114990234</ele>
        <time>2020-06-06T13:08:54Z</time>
      </trkpt>
      <trkpt lat="43.53613" lon="2.8289">
        <ele>371.11486816406</ele>
        <time>2020-06-06T13:09:02Z</time>
      </trkpt>
      <trkpt lat="43.53604" lon="2.82898">
        <ele>372.09753417969</ele>
        <time>2020-06-06T13:09:10Z</time>
      </trkpt>
      <trkpt lat="43.53596" lon="2.82906">
        <ele>368.15087890625</ele>
        <time>2020-06-06T13:09:22Z</time>
      </trkpt>
      <trkpt lat="43.53587" lon="2.82911">
        <ele>365.16284179688</ele>
        <time>2020-06-06T13:09:30Z</time>
      </trkpt>
      <trkpt lat="43.53579" lon="2.82917">
        <ele>367.46728515625</ele>
        <time>2020-06-06T13:09:40Z</time>
      </trkpt>
      <trkpt lat="43.53572" lon="2.82929">
        <ele>367.58776855469</ele>
        <time>2020-06-06T13:09:47Z</time>
      </trkpt>
      <trkpt lat="43.53568" lon="2.82941">
        <ele>355.80194091797</ele>
        <time>2020-06-06T13:10:04Z</time>
      </trkpt>
      <trkpt lat="43.53563" lon="2.82952">
        <ele>356.54711914062</ele>
        <time>2020-06-06T13:10:12Z</time>
      </trkpt>
      <trkpt lat="43.53558" lon="2.82964">
        <ele>355.41778564453</ele>
        <time>2020-06-06T13:10:20Z</time>
      </trkpt>
      <trkpt lat="43.53552" lon="2.82975">
        <ele>356.90795898438</ele>
        <time>2020-06-06T13:10:27Z</time>
      </trkpt>
      <trkpt lat="43.5355" lon="2.82987">
        <ele>354.01245117188</ele>
        <time>2020-06-06T13:10:37Z</time>
      </trkpt>
      <trkpt lat="43.53547" lon="2.82999">
        <ele>355.34997558594</ele>
        <time>2020-06-06T13:10:48Z</time>
      </trkpt>
      <trkpt lat="43.53543" lon="2.83013">
        <ele>355.40936279297</ele>
        <time>2020-06-06T13:10:56Z</time>
      </trkpt>
      <trkpt lat="43.53541" lon="2.83028">
        <ele>357.77697753906</ele>
        <time>2020-06-06T13:11:09Z</time>
      </trkpt>
      <trkpt lat="43.53534" lon="2.83043">
        <ele>354.76702880859</ele>
        <time>2020-06-06T13:11:15Z</time>
      </trkpt>
      <trkpt lat="43.53528" lon="2.83055">
        <ele>355.64892578125</ele>
        <time>2020-06-06T13:11:25Z</time>
      </trkpt>
      <trkpt lat="43.53522" lon="2.83069">
        <ele>358.36462402344</ele>
        <time>2020-06-06T13:11:31Z</time>
      </trkpt>
      <trkpt lat="43.53517" lon="2.83083">
        <ele>358.05419921875</ele>
        <time>2020-06-06T13:11:40Z</time>
      </trkpt>
      <trkpt lat="43.53512" lon="2.83095">
        <ele>356.94873046875</ele>
        <time>2020-06-06T13:11:50Z</time>
      </trkpt>
      <trkpt lat="43.53505" lon="2.83106">
        <ele>355.47875976562</ele>
        <time>2020-06-06T13:11:59Z</time>
      </trkpt>
      <trkpt lat="43.53496" lon="2.83113">
        <ele>355.68353271484</ele>
        <time>2020-06-06T13:12:14Z</time>
      </trkpt>
      <trkpt lat="43.53485" lon="2.83114">
        <ele>355.86547851562</ele>
        <time>2020-06-06T13:12:23Z</time>
      </trkpt>
      <trkpt lat="43.53474" lon="2.83117">
        <ele>357.72436523438</ele>
        <time>2020-06-06T13:12:29Z</time>
      </trkpt>
      <trkpt lat="43.53463" lon="2.83122">
        <ele>359.24462890625</ele>
        <time>2020-06-06T13:12:38Z</time>
      </trkpt>
      <trkpt lat="43.53452" lon="2.83122">
        <ele>356.83209228516</ele>
        <time>2020-06-06T13:12:47Z</time>
      </trkpt>
      <trkpt lat="43.53441" lon="2.83123">
        <ele>355.76538085938</ele>
        <time>2020-06-06T13:12:56Z</time>
      </trkpt>
      <trkpt lat="43.53431" lon="2.83122">
        <ele>351.48486328125</ele>
        <time>2020-06-06T13:13:07Z</time>
      </trkpt>
      <trkpt lat="43.53422" lon="2.83117">
        <ele>352.544921875</ele>
        <time>2020-06-06T13:13:14Z</time>
      </trkpt>
      <trkpt lat="43.53413" lon="2.83113">
        <ele>352.36468505859</ele>
        <time>2020-06-06T13:13:23Z</time>
      </trkpt>
      <trkpt lat="43.53403" lon="2.83115">
        <ele>354.07421875</ele>
        <time>2020-06-06T13:13:34Z</time>
      </trkpt>
      <trkpt lat="43.53395" lon="2.83123">
        <ele>355.7841796875</ele>
        <time>2020-06-06T13:13:41Z</time>
      </trkpt>
      <trkpt lat="43.53386" lon="2.83128">
        <ele>353.87719726562</ele>
        <time>2020-06-06T13:13:49Z</time>
      </trkpt>
      <trkpt lat="43.53376" lon="2.83131">
        <ele>356.17749023438</ele>
        <time>2020-06-06T13:13:57Z</time>
      </trkpt>
      <trkpt lat="43.53366" lon="2.83134">
        <ele>352.54541015625</ele>
        <time>2020-06-06T13:14:05Z</time>
      </trkpt>
      <trkpt lat="43.53357" lon="2.83139">
        <ele>351.92614746094</ele>
        <time>2020-06-06T13:14:14Z</time>
      </trkpt>
      <trkpt lat="43.53347" lon="2.83146">
        <ele>353.04486083984</ele>
        <time>2020-06-06T13:14:22Z</time>
      </trkpt>
      <trkpt lat="43.53338" lon="2.83145">
        <ele>351.83532714844</ele>
        <time>2020-06-06T13:14:33Z</time>
      </trkpt>
      <trkpt lat="43.53328" lon="2.83146">
        <ele>351.37261962891</ele>
        <time>2020-06-06T13:14:41Z</time>
      </trkpt>
      <trkpt lat="43.53318" lon="2.83142">
        <ele>350.76708984375</ele>
        <time>2020-06-06T13:14:50Z</time>
      </trkpt>
      <trkpt lat="43.53307" lon="2.83142">
        <ele>350.40441894531</ele>
        <time>2020-06-06T13:14:59Z</time>
      </trkpt>
      <trkpt lat="43.53296" lon="2.83142">
        <ele>345.32427978516</ele>
        <time>2020-06-06T13:15:10Z</time>
      </trkpt>
      <trkpt lat="43.53286" lon="2.83141">
        <ele>343.90344238281</ele>
        <time>2020-06-06T13:15:19Z</time>
      </trkpt>
      <trkpt lat="43.53277" lon="2.83133">
        <ele>338.32092285156</ele>
        <time>2020-06-06T13:15:29Z</time>
      </trkpt>
      <trkpt lat="43.53267" lon="2.83129">
        <ele>340.27362060547</ele>
        <time>2020-06-06T13:15:42Z</time>
      </trkpt>
      <trkpt lat="43.53257" lon="2.83129">
        <ele>348.04364013672</ele>
        <time>2020-06-06T13:15:52Z</time>
      </trkpt>
      <trkpt lat="43.53247" lon="2.8313">
        <ele>349.431640625</ele>
        <time>2020-06-06T13:16:02Z</time>
      </trkpt>
      <trkpt lat="43.53237" lon="2.83128">
        <ele>356.50183105469</ele>
        <time>2020-06-06T13:16:43Z</time>
      </trkpt>
      <trkpt lat="43.53232" lon="2.83116">
        <ele>354.63800048828</ele>
        <time>2020-06-06T13:16:53Z</time>
      </trkpt>
      <trkpt lat="43.53225" lon="2.83107">
        <ele>352.69024658203</ele>
        <time>2020-06-06T13:17:01Z</time>
      </trkpt>
      <trkpt lat="43.5322" lon="2.83093">
        <ele>354.76458740234</ele>
        <time>2020-06-06T13:17:11Z</time>
      </trkpt>
      <trkpt lat="43.53212" lon="2.83085">
        <ele>355.63623046875</ele>
        <time>2020-06-06T13:17:23Z</time>
      </trkpt>
      <trkpt lat="43.53205" lon="2.83076">
        <ele>357.66381835938</ele>
        <time>2020-06-06T13:17:35Z</time>
      </trkpt>
      <trkpt lat="43.53198" lon="2.83068">
        <ele>358.57141113281</ele>
        <time>2020-06-06T13:17:47Z</time>
      </trkpt>
      <trkpt lat="43.53191" lon="2.83059">
        <ele>354.98303222656</ele>
        <time>2020-06-06T13:17:57Z</time>
      </trkpt>
      <trkpt lat="43.53182" lon="2.83053">
        <ele>358.43981933594</ele>
        <time>2020-06-06T13:18:06Z</time>
      </trkpt>
      <trkpt lat="43.53172" lon="2.83051">
        <ele>352.74877929688</ele>
        <time>2020-06-06T13:18:29Z</time>
      </trkpt>
      <trkpt lat="43.53167" lon="2.83039">
        <ele>341.03051757812</ele>
        <time>2020-06-06T13:19:10Z</time>
      </trkpt>
      <trkpt lat="43.53161" lon="2.83028">
        <ele>339.30053710938</ele>
        <time>2020-06-06T13:19:16Z</time>
      </trkpt>
      <trkpt lat="43.53154" lon="2.83017">
        <ele>340.10479736328</ele>
        <time>2020-06-06T13:19:25Z</time>
      </trkpt>
      <trkpt lat="43.53149" lon="2.83004">
        <ele>339.1552734375</ele>
        <time>2020-06-06T13:19:33Z</time>
      </trkpt>
      <trkpt lat="43.53143" lon="2.82992">
        <ele>340.09136962891</ele>
        <time>2020-06-06T13:19:44Z</time>
      </trkpt>
      <trkpt lat="43.53129" lon="2.82986">
        <ele>334.89611816406</ele>
        <time>2020-06-06T13:20:20Z</time>
      </trkpt>
      <trkpt lat="43.53121" lon="2.8298">
        <ele>334.82763671875</ele>
        <time>2020-06-06T13:20:31Z</time>
      </trkpt>
      <trkpt lat="43.53113" lon="2.82971">
        <ele>332.34118652344</ele>
        <time>2020-06-06T13:20:43Z</time>
      </trkpt>
      <trkpt lat="43.53105" lon="2.82962">
        <ele>328.53204345703</ele>
        <time>2020-06-06T13:20:52Z</time>
      </trkpt>
      <trkpt lat="43.53096" lon="2.82956">
        <ele>321.06335449219</ele>
        <time>2020-06-06T13:21:00Z</time>
      </trkpt>
      <trkpt lat="43.5309" lon="2.82947">
        <ele>322.62353515625</ele>
        <time>2020-06-06T13:21:13Z</time>
      </trkpt>
      <trkpt lat="43.53084" lon="2.82936">
        <ele>325.36602783203</ele>
        <time>2020-06-06T13:21:26Z</time>
      </trkpt>
      <trkpt lat="43.53078" lon="2.82926">
        <ele>323.13586425781</ele>
        <time>2020-06-06T13:21:41Z</time>
      </trkpt>
      <trkpt lat="43.53068" lon="2.82914">
        <ele>322.20971679688</ele>
        <time>2020-06-06T13:22:18Z</time>
      </trkpt>
      <trkpt lat="43.53063" lon="2.82902">
        <ele>317.77624511719</ele>
        <time>2020-06-06T13:22:35Z</time>
      </trkpt>
      <trkpt lat="43.53057" lon="2.82892">
        <ele>322.94262695312</ele>
        <time>2020-06-06T13:22:52Z</time>
      </trkpt>
      <trkpt lat="43.53051" lon="2.82882">
        <ele>321.86749267578</ele>
        <time>2020-06-06T13:23:06Z</time>
      </trkpt>
      <trkpt lat="43.53052" lon="2.82865">
        <ele>318.77612304688</ele>
        <time>2020-06-06T13:23:59Z</time>
      </trkpt>
      <trkpt lat="43.53046" lon="2.82855">
        <ele>314.62030029297</ele>
        <time>2020-06-06T13:24:13Z</time>
      </trkpt>
      <trkpt lat="43.53043" lon="2.82843">
        <ele>313.84533691406</ele>
        <time>2020-06-06T13:24:23Z</time>
      </trkpt>
      <trkpt lat="43.53037" lon="2.82831">
        <ele>312.52783203125</ele>
        <time>2020-06-06T13:24:40Z</time>
      </trkpt>
      <trkpt lat="43.53033" lon="2.82819">
        <ele>306.96728515625</ele>
        <time>2020-06-06T13:24:57Z</time>
      </trkpt>
      <trkpt lat="43.53027" lon="2.82809">
        <ele>306.8046875</ele>
        <time>2020-06-06T13:25:28Z</time>
      </trkpt>
      <trkpt lat="43.5302" lon="2.82798">
        <ele>307.23980712891</ele>
        <time>2020-06-06T13:25:36Z</time>
      </trkpt>
      <trkpt lat="43.53014" lon="2.82786">
        <ele>308.43414306641</ele>
        <time>2020-06-06T13:25:43Z</time>
      </trkpt>
      <trkpt lat="43.53008" lon="2.82776">
        <ele>307.03387451172</ele>
        <time>2020-06-06T13:25:51Z</time>
      </trkpt>
      <trkpt lat="43.53002" lon="2.82765">
        <ele>300.58764648438</ele>
        <time>2020-06-06T13:26:03Z</time>
      </trkpt>
      <trkpt lat="43.52996" lon="2.82754">
        <ele>301.18200683594</ele>
        <time>2020-06-06T13:26:31Z</time>
      </trkpt>
      <trkpt lat="43.5299" lon="2.82741">
        <ele>299.30859375</ele>
        <time>2020-06-06T13:26:40Z</time>
      </trkpt>
      <trkpt lat="43.52987" lon="2.82729">
        <ele>298.15362548828</ele>
        <time>2020-06-06T13:26:49Z</time>
      </trkpt>
      <trkpt lat="43.52982" lon="2.82717">
        <ele>302.06597900391</ele>
        <time>2020-06-06T13:27:14Z</time>
      </trkpt>
      <trkpt lat="43.52976" lon="2.82704">
        <ele>302.27545166016</ele>
        <time>2020-06-06T13:27:21Z</time>
      </trkpt>
      <trkpt lat="43.5297" lon="2.82692">
        <ele>293.43933105469</ele>
        <time>2020-06-06T13:27:27Z</time>
      </trkpt>
      <trkpt lat="43.52962" lon="2.8268">
        <ele>290.62426757812</ele>
        <time>2020-06-06T13:27:34Z</time>
      </trkpt>
      <trkpt lat="43.52958" lon="2.82668">
        <ele>288.64782714844</ele>
        <time>2020-06-06T13:27:41Z</time>
      </trkpt>
      <trkpt lat="43.52955" lon="2.82656">
        <ele>286.12414550781</ele>
        <time>2020-06-06T13:27:52Z</time>
      </trkpt>
      <trkpt lat="43.52948" lon="2.82643">
        <ele>282.73107910156</ele>
        <time>2020-06-06T13:28:01Z</time>
      </trkpt>
      <trkpt lat="43.5294" lon="2.82636">
        <ele>284.58862304688</ele>
        <time>2020-06-06T13:28:43Z</time>
      </trkpt>
      <trkpt lat="43.52931" lon="2.82634">
        <ele>270.97009277344</ele>
        <time>2020-06-06T13:29:31Z</time>
      </trkpt>
      <trkpt lat="43.52921" lon="2.8263">
        <ele>270.84246826172</ele>
        <time>2020-06-06T13:29:44Z</time>
      </trkpt>
      <trkpt lat="43.52911" lon="2.82629">
        <ele>268.48168945312</ele>
        <time>2020-06-06T13:29:52Z</time>
      </trkpt>
      <trkpt lat="43.52902" lon="2.82628">
        <ele>268.0625</ele>
        <time>2020-06-06T13:29:59Z</time>
      </trkpt>
      <trkpt lat="43.52893" lon="2.82634">
        <ele>270.61193847656</ele>
        <time>2020-06-06T13:30:12Z</time>
      </trkpt>
      <trkpt lat="43.52882" lon="2.82641">
        <ele>277.20001220703</ele>
        <time>2020-06-06T13:30:37Z</time>
      </trkpt>
      <trkpt lat="43.52877" lon="2.82653">
        <ele>277.20001220703</ele>
        <time>2020-06-06T13:30:48Z</time>
      </trkpt>
      <trkpt lat="43.52871" lon="2.82664">
        <ele>277.80001831055</ele>
        <time>2020-06-06T13:30:59Z</time>
      </trkpt>
      <trkpt lat="43.52862" lon="2.82661">
        <ele>277.80001831055</ele>
        <time>2020-06-06T13:31:10Z</time>
      </trkpt>
      <trkpt lat="43.52851" lon="2.82671">
        <ele>277.80001831055</ele>
        <time>2020-06-06T13:31:28Z</time>
      </trkpt>
      <trkpt lat="43.52841" lon="2.82672">
        <ele>277.80001831055</ele>
        <time>2020-06-06T13:31:39Z</time>
      </trkpt>
      <trkpt lat="43.52832" lon="2.82676">
        <ele>277.80001831055</ele>
        <time>2020-06-06T13:31:48Z</time>
      </trkpt>
      <trkpt lat="43.52822" lon="2.82679">
        <ele>254.75244140625</ele>
        <time>2020-06-06T13:31:58Z</time>
      </trkpt>
      <trkpt lat="43.52812" lon="2.82677">
        <ele>250.2021484375</ele>
        <time>2020-06-06T13:32:06Z</time>
      </trkpt>
      <trkpt lat="43.52802" lon="2.82676">
        <ele>248.21856689453</ele>
        <time>2020-06-06T13:32:24Z</time>
      </trkpt>
      <trkpt lat="43.52792" lon="2.82683">
        <ele>248.8720703125</ele>
        <time>2020-06-06T13:32:36Z</time>
      </trkpt>
      <trkpt lat="43.52782" lon="2.82692">
        <ele>247.8818359375</ele>
        <time>2020-06-06T13:32:43Z</time>
      </trkpt>
      <trkpt lat="43.52773" lon="2.82693">
        <ele>243.13793945312</ele>
        <time>2020-06-06T13:32:54Z</time>
      </trkpt>
      <trkpt lat="43.52763" lon="2.82697">
        <ele>244.22912597656</ele>
        <time>2020-06-06T13:33:04Z</time>
      </trkpt>
      <trkpt lat="43.52753" lon="2.827">
        <ele>247.36584472656</ele>
        <time>2020-06-06T13:33:12Z</time>
      </trkpt>
      <trkpt lat="43.52743" lon="2.82704">
        <ele>250.67956542969</ele>
        <time>2020-06-06T13:33:19Z</time>
      </trkpt>
      <trkpt lat="43.52733" lon="2.82704">
        <ele>251.30682373047</ele>
        <time>2020-06-06T13:33:37Z</time>
      </trkpt>
      <trkpt lat="43.52722" lon="2.82709">
        <ele>253.29614257812</ele>
        <time>2020-06-06T13:33:44Z</time>
      </trkpt>
      <trkpt lat="43.52713" lon="2.82713">
        <ele>257.09106445312</ele>
        <time>2020-06-06T13:33:49Z</time>
      </trkpt>
      <trkpt lat="43.52704" lon="2.82716">
        <ele>257.99084472656</ele>
        <time>2020-06-06T13:33:55Z</time>
      </trkpt>
      <trkpt lat="43.52693" lon="2.8272">
        <ele>259.46813964844</ele>
        <time>2020-06-06T13:34:01Z</time>
      </trkpt>
      <trkpt lat="43.52683" lon="2.82724">
        <ele>261.86749267578</ele>
        <time>2020-06-06T13:34:11Z</time>
      </trkpt>
      <trkpt lat="43.52672" lon="2.82724">
        <ele>263.64697265625</ele>
        <time>2020-06-06T13:34:17Z</time>
      </trkpt>
      <trkpt lat="43.52663" lon="2.82716">
        <ele>256.76898193359</ele>
        <time>2020-06-06T13:34:32Z</time>
      </trkpt>
      <trkpt lat="43.52653" lon="2.82711">
        <ele>253.50091552734</ele>
        <time>2020-06-06T13:34:41Z</time>
      </trkpt>
      <trkpt lat="43.52643" lon="2.82707">
        <ele>254.58154296875</ele>
        <time>2020-06-06T13:34:57Z</time>
      </trkpt>
      <trkpt lat="43.52633" lon="2.82703">
        <ele>255.91882324219</ele>
        <time>2020-06-06T13:35:04Z</time>
      </trkpt>
      <trkpt lat="43.5262" lon="2.8271">
        <ele>261.52380371094</ele>
        <time>2020-06-06T13:35:15Z</time>
      </trkpt>
      <trkpt lat="43.52612" lon="2.82718">
        <ele>255.53149414062</ele>
        <time>2020-06-06T13:35:22Z</time>
      </trkpt>
      <trkpt lat="43.52606" lon="2.82728">
        <ele>263.86633300781</ele>
        <time>2020-06-06T13:35:34Z</time>
      </trkpt>
      <trkpt lat="43.52596" lon="2.82732">
        <ele>261.82690429688</ele>
        <time>2020-06-06T13:35:42Z</time>
      </trkpt>
      <trkpt lat="43.52588" lon="2.82741">
        <ele>255.56799316406</ele>
        <time>2020-06-06T13:35:50Z</time>
      </trkpt>
      <trkpt lat="43.52578" lon="2.82746">
        <ele>254.85107421875</ele>
        <time>2020-06-06T13:36:02Z</time>
      </trkpt>
      <trkpt lat="43.52569" lon="2.82749">
        <ele>254.84606933594</ele>
        <time>2020-06-06T13:36:15Z</time>
      </trkpt>
      <trkpt lat="43.52558" lon="2.82751">
        <ele>254.53625488281</ele>
        <time>2020-06-06T13:36:23Z</time>
      </trkpt>
      <trkpt lat="43.52549" lon="2.82754">
        <ele>250.54821777344</ele>
        <time>2020-06-06T13:36:32Z</time>
      </trkpt>
      <trkpt lat="43.52539" lon="2.82751">
        <ele>247.44622802734</ele>
        <time>2020-06-06T13:36:40Z</time>
      </trkpt>
      <trkpt lat="43.5253" lon="2.82751">
        <ele>251.24365234375</ele>
        <time>2020-06-06T13:36:50Z</time>
      </trkpt>
      <trkpt lat="43.5252" lon="2.82752">
        <ele>251.97595214844</ele>
        <time>2020-06-06T13:37:24Z</time>
      </trkpt>
      <trkpt lat="43.5251" lon="2.82755">
        <ele>246.91076660156</ele>
        <time>2020-06-06T13:37:33Z</time>
      </trkpt>
      <trkpt lat="43.525" lon="2.82762">
        <ele>250.43359375</ele>
        <time>2020-06-06T13:37:41Z</time>
      </trkpt>
      <trkpt lat="43.52491" lon="2.82768">
        <ele>251.02697753906</ele>
        <time>2020-06-06T13:37:52Z</time>
      </trkpt>
      <trkpt lat="43.52482" lon="2.82775">
        <ele>245.96875</ele>
        <time>2020-06-06T13:38:05Z</time>
      </trkpt>
      <trkpt lat="43.52475" lon="2.82785">
        <ele>249.22204589844</ele>
        <time>2020-06-06T13:38:26Z</time>
      </trkpt>
      <trkpt lat="43.52466" lon="2.82794">
        <ele>255.42883300781</ele>
        <time>2020-06-06T13:38:32Z</time>
      </trkpt>
      <trkpt lat="43.52461" lon="2.82805">
        <ele>249.35986328125</ele>
        <time>2020-06-06T13:38:44Z</time>
      </trkpt>
      <trkpt lat="43.52456" lon="2.82818">
        <ele>254.37530517578</ele>
        <time>2020-06-06T13:38:51Z</time>
      </trkpt>
      <trkpt lat="43.52456" lon="2.82832">
        <ele>248.29406738281</ele>
        <time>2020-06-06T13:39:01Z</time>
      </trkpt>
      <trkpt lat="43.5245" lon="2.82841">
        <ele>250.51666259766</ele>
        <time>2020-06-06T13:39:29Z</time>
      </trkpt>
      <trkpt lat="43.52441" lon="2.82847">
        <ele>246.10876464844</ele>
        <time>2020-06-06T13:39:53Z</time>
      </trkpt>
      <trkpt lat="43.52433" lon="2.82854">
        <ele>242.89270019531</ele>
        <time>2020-06-06T13:40:05Z</time>
      </trkpt>
      <trkpt lat="43.52424" lon="2.82868">
        <ele>233.955078125</ele>
        <time>2020-06-06T13:40:28Z</time>
      </trkpt>
      <trkpt lat="43.52417" lon="2.82878">
        <ele>234.18426513672</ele>
        <time>2020-06-06T13:40:51Z</time>
      </trkpt>
      <trkpt lat="43.52411" lon="2.82888">
        <ele>234.77197265625</ele>
        <time>2020-06-06T13:41:02Z</time>
      </trkpt>
      <trkpt lat="43.52408" lon="2.82902">
        <ele>233.97790527344</ele>
        <time>2020-06-06T13:41:07Z</time>
      </trkpt>
      <trkpt lat="43.52406" lon="2.82916">
        <ele>236.49096679688</ele>
        <time>2020-06-06T13:41:11Z</time>
      </trkpt>
      <trkpt lat="43.52403" lon="2.82929">
        <ele>236.07800292969</ele>
        <time>2020-06-06T13:41:25Z</time>
      </trkpt>
      <trkpt lat="43.52404" lon="2.82941">
        <ele>247.80001831055</ele>
        <time>2020-06-06T13:41:46Z</time>
      </trkpt>
    </trkseg>
  </trk>
</gpx>